Wetterdaten: Dienstag, 22.06.2021
Datum Zeit Temp. Aussen Temp. o. S. Temp +5cm Feuchte Auss Luftdruck Regen Sonnenschein Regendauer Solar Windben Empfang
22.06.2021 00:00 15,4 C 15,0 C 13,4 C 88 % 1014,2 hPa 0,0 l/m 0 min 0 min 0 W/m 12,9 km/h (3 Bft) 97,87 %
22.06.2021 00:02 15,4 C 15,0 C 13,4 C 88 % 1014,1 hPa 0,0 l/m 0 min 0 min 0 W/m 12,9 km/h (3 Bft) 95,45 %
22.06.2021 00:04 15,4 C 15,0 C 13,4 C 87 % 1014,1 hPa 0,0 l/m 0 min 0 min 0 W/m 19,3 km/h (3 Bft) 97,83 %
22.06.2021 00:08 15,3 C 14,4 C 13,4 C 87 % 1014,1 hPa 0,0 l/m 0 min 0 min 0 W/m 12,9 km/h (3 Bft) 98,94 %
22.06.2021 00:10 15,3 C 14,4 C 13,4 C 87 % 1014,1 hPa 0,0 l/m 0 min 0 min 0 W/m 9,7 km/h (2 Bft) 100,00 %
22.06.2021 00:12 15,3 C 14,4 C 13,4 C 87 % 1014,1 hPa 0,0 l/m 0 min 0 min 0 W/m 12,9 km/h (3 Bft) 95,74 %
22.06.2021 00:14 15,3 C 14,4 C 13,4 C 87 % 1014,0 hPa 0,0 l/m 0 min 0 min 0 W/m 12,9 km/h (3 Bft) 97,87 %
22.06.2021 00:16 15,3 C 14,4 C 13,4 C 87 % 1014,0 hPa 0,0 l/m 0 min 0 min 0 W/m 9,7 km/h (2 Bft) 97,83 %
22.06.2021 00:18 15,3 C 14,4 C 13,4 C 87 % 1014,0 hPa 0,0 l/m 0 min 0 min 0 W/m 19,3 km/h (3 Bft) 100,00 %
22.06.2021 00:20 15,3 C 14,4 C 13,4 C 87 % 1014,0 hPa 0,0 l/m 0 min 0 min 0 W/m 9,7 km/h (2 Bft) 97,87 %
22.06.2021 00:22 15,2 C 14,4 C 13,4 C 87 % 1014,0 hPa 0,0 l/m 0 min 0 min 0 W/m 16,1 km/h (3 Bft) 97,87 %
22.06.2021 00:24 15,2 C 14,4 C 13,4 C 88 % 1014,0 hPa 0,0 l/m 0 min 0 min 0 W/m 19,3 km/h (3 Bft) 100,00 %
22.06.2021 00:26 15,2 C 14,4 C 13,4 C 88 % 1014,0 hPa 0,0 l/m 0 min 0 min 0 W/m 16,1 km/h (3 Bft) 100,00 %
22.06.2021 00:28 15,1 C 14,4 C 13,4 C 88 % 1013,9 hPa 0,0 l/m 0 min 0 min 0 W/m 12,9 km/h (3 Bft) 100,00 %
22.06.2021 00:30 15,1 C 14,4 C 13,4 C 88 % 1013,9 hPa 0,0 l/m 0 min 0 min 0 W/m 9,7 km/h (2 Bft) 97,87 %
22.06.2021 00:32 15,1 C 14,4 C 13,4 C 88 % 1013,8 hPa 0,0 l/m 0 min 0 min 0 W/m 9,7 km/h (2 Bft) 97,87 %
22.06.2021 00:34 15,1 C 14,4 C 13,4 C 88 % 1013,7 hPa 0,0 l/m 0 min 0 min 0 W/m 16,1 km/h (3 Bft) 100,00 %
22.06.2021 00:36 15,1 C 14,4 C 13,4 C 88 % 1013,9 hPa 0,0 l/m 0 min 0 min 0 W/m 12,9 km/h (3 Bft) 100,00 %
22.06.2021 00:38 15,1 C 14,4 C 13,4 C 88 % 1014,1 hPa 0,0 l/m 0 min 0 min 0 W/m 19,3 km/h (3 Bft) 100,00 %
22.06.2021 00:40 15,0 C 14,4 C 13,4 C 88 % 1014,2 hPa 0,0 l/m 0 min 0 min 0 W/m 19,3 km/h (3 Bft) 97,87 %
22.06.2021 00:42 15,0 C 14,4 C 13,4 C 88 % 1014,3 hPa 0,0 l/m 0 min 0 min 0 W/m 16,1 km/h (3 Bft) 100,00 %
22.06.2021 00:44 15,0 C 14,4 C 13,4 C 88 % 1014,4 hPa 0,0 l/m 0 min 0 min 0 W/m 12,9 km/h (3 Bft) 100,00 %
22.06.2021 00:46 15,0 C 14,4 C 13,4 C 88 % 1014,3 hPa 0,0 l/m 0 min 0 min 0 W/m 16,1 km/h (3 Bft) 100,00 %
22.06.2021 00:48 15,0 C 14,4 C 12,8 C 88 % 1014,2 hPa 0,0 l/m 0 min 0 min 0 W/m 22,5 km/h (4 Bft) 100,00 %
22.06.2021 00:50 15,0 C 14,4 C 12,8 C 88 % 1014,2 hPa 0,0 l/m 0 min 0 min 0 W/m 19,3 km/h (3 Bft) 100,00 %
22.06.2021 00:52 15,0 C 14,4 C 12,8 C 88 % 1014,2 hPa 0,0 l/m 0 min 0 min 0 W/m 12,9 km/h (3 Bft) 100,00 %
22.06.2021 00:54 14,9 C 14,4 C 12,8 C 88 % 1014,1 hPa 0,0 l/m 0 min 0 min 0 W/m 19,3 km/h (3 Bft) 100,00 %
22.06.2021 00:56 14,9 C 14,4 C 12,8 C 88 % 1014,2 hPa 0,0 l/m 0 min 0 min 0 W/m 12,9 km/h (3 Bft) 100,00 %
22.06.2021 00:58 14,9 C 14,4 C 12,8 C 88 % 1014,2 hPa 0,0 l/m 0 min 0 min 0 W/m 16,1 km/h (3 Bft) 100,00 %
22.06.2021 01:00 14,9 C 13,9 C 12,8 C 88 % 1014,1 hPa 0,0 l/m 0 min 0 min 0 W/m 12,9 km/h (3 Bft) 100,00 %
22.06.2021 01:02 14,9 C 14,4 C 12,8 C 89 % 1014,1 hPa 0,0 l/m 0 min 0 min 0 W/m 16,1 km/h (3 Bft) 100,00 %
22.06.2021 01:04 14,9 C 14,4 C 12,8 C 89 % 1014,0 hPa 0,0 l/m 0 min 0 min 0 W/m 12,9 km/h (3 Bft) 100,00 %
22.06.2021 01:06 14,9 C 13,9 C 12,8 C 89 % 1014,0 hPa 0,0 l/m 0 min 0 min 0 W/m 9,7 km/h (2 Bft) 100,00 %
22.06.2021 01:08 14,8 C 13,9 C 12,8 C 89 % 1014,1 hPa 0,0 l/m 0 min 0 min 0 W/m 12,9 km/h (3 Bft) 100,00 %
22.06.2021 01:10 14,8 C 13,9 C 12,8 C 89 % 1014,1 hPa 0,0 l/m 0 min 0 min 0 W/m 16,1 km/h (3 Bft) 100,00 %
22.06.2021 01:12 14,8 C 13,9 C 12,8 C 89 % 1014,2 hPa 0,0 l/m 0 min 0 min 0 W/m 9,7 km/h (2 Bft) 97,87 %
22.06.2021 01:14 14,7 C 13,9 C 12,8 C 89 % 1014,2 hPa 0,0 l/m 0 min 0 min 0 W/m 9,7 km/h (2 Bft) 100,00 %
22.06.2021 01:16 14,7 C 13,9 C 12,8 C 89 % 1014,4 hPa 0,0 l/m 0 min 0 min 0 W/m 12,9 km/h (3 Bft) 95,74 %
22.06.2021 01:18 14,6 C 13,9 C 12,8 C 89 % 1014,4 hPa 0,0 l/m 0 min 0 min 0 W/m 19,3 km/h (3 Bft) 100,00 %
22.06.2021 01:20 14,6 C 13,9 C 12,8 C 90 % 1014,4 hPa 0,0 l/m 0 min 0 min 0 W/m 16,1 km/h (3 Bft) 100,00 %
22.06.2021 01:22 14,6 C 13,9 C 12,8 C 89 % 1014,4 hPa 0,0 l/m 0 min 0 min 0 W/m 16,1 km/h (3 Bft) 100,00 %
22.06.2021 01:24 14,5 C 13,9 C 12,8 C 89 % 1014,3 hPa 0,0 l/m 0 min 0 min 0 W/m 12,9 km/h (3 Bft) 97,87 %
22.06.2021 01:26 14,5 C 13,9 C 12,8 C 90 % 1014,3 hPa 0,0 l/m 0 min 0 min 0 W/m 19,3 km/h (3 Bft) 100,00 %
22.06.2021 01:28 14,5 C 13,9 C 12,8 C 89 % 1014,3 hPa 0,0 l/m 0 min 0 min 0 W/m 12,9 km/h (3 Bft) 93,62 %
22.06.2021 01:30 14,5 C 13,9 C 12,8 C 89 % 1014,5 hPa 0,0 l/m 0 min 0 min 0 W/m 6,4 km/h (2 Bft) 100,00 %
22.06.2021 01:32 14,5 C 13,9 C 12,8 C 89 % 1014,5 hPa 0,0 l/m 0 min 0 min 0 W/m 12,9 km/h (3 Bft) 93,62 %
22.06.2021 01:34 14,5 C 13,9 C 12,8 C 89 % 1014,4 hPa 0,0 l/m 0 min 0 min 0 W/m 6,4 km/h (2 Bft) 100,00 %
22.06.2021 01:36 14,5 C 13,9 C 12,8 C 89 % 1014,4 hPa 0,0 l/m 0 min 0 min 0 W/m 12,9 km/h (3 Bft) 97,87 %
22.06.2021 01:38 14,5 C 13,9 C 12,8 C 89 % 1014,3 hPa 0,0 l/m 0 min 0 min 0 W/m 12,9 km/h (3 Bft) 95,65 %
22.06.2021 01:40 14,5 C 13,9 C 12,8 C 89 % 1014,3 hPa 0,0 l/m 0 min 0 min 0 W/m 12,9 km/h (3 Bft) 97,87 %
22.06.2021 01:42 14,5 C 13,9 C 12,8 C 89 % 1014,3 hPa 0,0 l/m 0 min 0 min 0 W/m 19,3 km/h (3 Bft) 95,74 %
22.06.2021 01:44 14,4 C 13,9 C 12,8 C 89 % 1014,2 hPa 0,0 l/m 0 min 0 min 0 W/m 9,7 km/h (2 Bft) 95,74 %
22.06.2021 01:46 14,4 C 13,9 C 12,8 C 89 % 1014,3 hPa 0,0 l/m 0 min 0 min 0 W/m 9,7 km/h (2 Bft) 95,74 %
22.06.2021 01:48 14,4 C 13,9 C 12,8 C 89 % 1014,3 hPa 0,0 l/m 0 min 0 min 0 W/m 16,1 km/h (3 Bft) 95,65 %
22.06.2021 01:50 14,4 C 13,9 C 12,8 C 89 % 1014,4 hPa 0,0 l/m 0 min 0 min 0 W/m 16,1 km/h (3 Bft) 94,87 %
22.06.2021 01:52 14,4 C 13,9 C 12,8 C 89 % 1014,4 hPa 0,0 l/m 0 min 0 min 0 W/m 16,1 km/h (3 Bft) 95,65 %
22.06.2021 01:54 14,4 C 13,9 C 12,8 C 89 % 1014,4 hPa 0,0 l/m 0 min 0 min 0 W/m 9,7 km/h (2 Bft) 95,74 %
22.06.2021 01:56 14,4 C 13,9 C 12,8 C 89 % 1014,5 hPa 0,0 l/m 0 min 0 min 0 W/m 12,9 km/h (3 Bft) 95,74 %
22.06.2021 01:58 14,4 C 13,9 C 12,8 C 89 % 1014,5 hPa 0,0 l/m 0 min 0 min 0 W/m 12,9 km/h (3 Bft) 95,74 %
22.06.2021 02:00 14,4 C 13,9 C 12,8 C 88 % 1014,5 hPa 0,0 l/m 0 min 0 min 0 W/m 9,7 km/h (2 Bft) 91,49 %
22.06.2021 02:02 14,4 C 13,9 C 12,8 C 88 % 1014,5 hPa 0,0 l/m 0 min 0 min 0 W/m 22,5 km/h (4 Bft) 93,48 %
22.06.2021 02:04 14,3 C 13,9 C 12,8 C 88 % 1014,5 hPa 0,0 l/m 0 min 0 min 0 W/m 6,4 km/h (2 Bft) 93,62 %
22.06.2021 02:06 14,3 C 13,9 C 12,8 C 88 % 1014,4 hPa 0,0 l/m 0 min 0 min 0 W/m 9,7 km/h (2 Bft) 95,74 %
22.06.2021 02:08 14,3 C 13,9 C 12,8 C 88 % 1014,4 hPa 0,0 l/m 0 min 0 min 0 W/m 9,7 km/h (2 Bft) 95,74 %
22.06.2021 02:10 14,3 C 13,9 C 12,8 C 88 % 1014,5 hPa 0,0 l/m 0 min 0 min 0 W/m 9,7 km/h (2 Bft) 95,74 %
22.06.2021 02:12 14,3 C 13,9 C 12,3 C 88 % 1014,5 hPa 0,0 l/m 0 min 0 min 0 W/m 16,1 km/h (3 Bft) 95,74 %
22.06.2021 02:14 14,2 C 13,9 C 12,3 C 88 % 1014,5 hPa 0,0 l/m 0 min 0 min 0 W/m 19,3 km/h (3 Bft) 95,65 %
22.06.2021 02:16 14,2 C 13,9 C 12,3 C 88 % 1014,4 hPa 0,0 l/m 0 min 0 min 0 W/m 16,1 km/h (3 Bft) 94,64 %
22.06.2021 02:18 14,2 C 13,9 C 12,3 C 88 % 1014,4 hPa 0,0 l/m 0 min 0 min 0 W/m 16,1 km/h (3 Bft) 95,74 %
22.06.2021 02:20 14,2 C 13,9 C 12,3 C 87 % 1014,4 hPa 0,0 l/m 0 min 0 min 0 W/m 12,9 km/h (3 Bft) 93,62 %
22.06.2021 02:22 14,2 C 13,9 C 12,3 C 87 % 1014,3 hPa 0,0 l/m 0 min 0 min 0 W/m 16,1 km/h (3 Bft) 95,74 %
22.06.2021 02:24 14,2 C 13,9 C 12,3 C 87 % 1014,3 hPa 0,0 l/m 0 min 0 min 0 W/m 16,1 km/h (3 Bft) 91,30 %
22.06.2021 02:26 14,2 C 13,9 C 12,3 C 87 % 1014,3 hPa 0,0 l/m 0 min 0 min 0 W/m 12,9 km/h (3 Bft) 93,62 %
22.06.2021 02:28 14,2 C 13,9 C 12,3 C 87 % 1014,3 hPa 0,0 l/m 0 min 0 min 0 W/m 16,1 km/h (3 Bft) 97,87 %
22.06.2021 02:30 14,2 C 13,9 C 12,3 C 87 % 1014,3 hPa 0,0 l/m 0 min 0 min 0 W/m 22,5 km/h (4 Bft) 100,00 %
22.06.2021 02:32 14,2 C 13,9 C 12,3 C 87 % 1014,3 hPa 0,0 l/m 0 min 0 min 0 W/m 22,5 km/h (4 Bft) 100,00 %
22.06.2021 02:34 14,2 C 13,9 C 12,3 C 87 % 1014,5 hPa 0,0 l/m 0 min 0 min 0 W/m 9,7 km/h (2 Bft) 100,00 %
22.06.2021 02:36 14,2 C 13,9 C 12,3 C 87 % 1014,4 hPa 0,0 l/m 0 min 0 min 0 W/m 12,9 km/h (3 Bft) 97,83 %
22.06.2021 02:38 14,2 C 13,9 C 12,3 C 87 % 1014,3 hPa 0,0 l/m 0 min 0 min 0 W/m 16,1 km/h (3 Bft) 100,00 %
22.06.2021 02:40 14,2 C 13,3 C 12,3 C 86 % 1014,2 hPa 0,0 l/m 0 min 0 min 0 W/m 12,9 km/h (3 Bft) 100,00 %
22.06.2021 02:42 14,2 C 13,9 C 12,3 C 86 % 1014,2 hPa 0,0 l/m 0 min 0 min 0 W/m 16,1 km/h (3 Bft) 100,00 %
22.06.2021 02:44 14,2 C 13,9 C 12,3 C 86 % 1014,2 hPa 0,0 l/m 0 min 0 min 0 W/m 9,7 km/h (2 Bft) 100,00 %
22.06.2021 02:46 14,1 C 13,9 C 12,3 C 86 % 1014,2 hPa 0,0 l/m 0 min 0 min 0 W/m 12,9 km/h (3 Bft) 97,83 %
22.06.2021 02:48 14,1 C 13,3 C 12,3 C 85 % 1014,2 hPa 0,0 l/m 0 min 0 min 0 W/m 12,9 km/h (3 Bft) 100,00 %
22.06.2021 02:50 14,1 C 13,3 C 12,3 C 85 % 1014,2 hPa 0,0 l/m 0 min 0 min 0 W/m 19,3 km/h (3 Bft) 100,00 %
22.06.2021 02:52 14,1 C 13,3 C 12,3 C 85 % 1014,1 hPa 0,0 l/m 0 min 0 min 0 W/m 12,9 km/h (3 Bft) 100,00 %
22.06.2021 02:54 14,1 C 13,3 C 12,3 C 85 % 1014,2 hPa 0,0 l/m 0 min 0 min 0 W/m 9,7 km/h (2 Bft) 95,74 %
22.06.2021 02:56 14,1 C 13,9 C 12,3 C 85 % 1014,2 hPa 0,0 l/m 0 min 0 min 0 W/m 9,7 km/h (2 Bft) 100,00 %
22.06.2021 02:58 14,1 C 13,3 C 12,3 C 85 % 1014,2 hPa 0,0 l/m 0 min 0 min 0 W/m 16,1 km/h (3 Bft) 100,00 %
22.06.2021 03:00 14,1 C 13,3 C 12,3 C 85 % 1014,2 hPa 0,0 l/m 0 min 0 min 0 W/m 12,9 km/h (3 Bft) 100,00 %
22.06.2021 03:02 14,1 C 13,3 C 12,3 C 85 % 1014,3 hPa 0,0 l/m 0 min 0 min 0 W/m 9,7 km/h (2 Bft) 100,00 %
22.06.2021 03:04 14,1 C 13,3 C 12,3 C 85 % 1014,3 hPa 0,0 l/m 0 min 0 min 0 W/m 6,4 km/h (2 Bft) 100,00 %
22.06.2021 03:06 14,1 C 13,3 C 12,3 C 85 % 1014,2 hPa 0,0 l/m 0 min 0 min 0 W/m 9,7 km/h (2 Bft) 100,00 %
22.06.2021 03:08 14,1 C 13,3 C 12,3 C 85 % 1014,2 hPa 0,0 l/m 0 min 0 min 0 W/m 6,4 km/h (2 Bft) 100,00 %
22.06.2021 03:10 14,1 C 13,3 C 12,3 C 85 % 1014,3 hPa 0,0 l/m 0 min 0 min 0 W/m 9,7 km/h (2 Bft) 100,00 %
22.06.2021 03:12 14,1 C 13,3 C 12,3 C 85 % 1014,3 hPa 0,0 l/m 0 min 0 min 0 W/m 16,1 km/h (3 Bft) 97,87 %
22.06.2021 03:14 14,1 C 13,3 C 12,3 C 85 % 1014,4 hPa 0,0 l/m 0 min 0 min 0 W/m 9,7 km/h (2 Bft) 100,00 %
22.06.2021 03:16 14,1 C 13,3 C 12,3 C 85 % 1014,4 hPa 0,0 l/m 0 min 0 min 0 W/m 9,7 km/h (2 Bft) 100,00 %
22.06.2021 03:18 14,0 C 13,3 C 11,7 C 85 % 1014,5 hPa 0,0 l/m 0 min 0 min 0 W/m 12,9 km/h (3 Bft) 100,00 %
22.06.2021 03:20 14,0 C 13,3 C 11,7 C 85 % 1014,4 hPa 0,0 l/m 0 min 0 min 0 W/m 12,9 km/h (3 Bft) 100,00 %
22.06.2021 03:22 14,0 C 13,3 C 11,7 C 85 % 1014,4 hPa 0,0 l/m 0 min 0 min 0 W/m 6,4 km/h (2 Bft) 100,00 %
22.06.2021 03:24 14,0 C 13,3 C 11,7 C 85 % 1014,4 hPa 0,0 l/m 0 min 0 min 0 W/m 16,1 km/h (3 Bft) 95,74 %
22.06.2021 03:26 14,0 C 13,3 C 11,7 C 85 % 1014,4 hPa 0,0 l/m 0 min 0 min 0 W/m 6,4 km/h (2 Bft) 100,00 %
22.06.2021 03:28 13,9 C 13,3 C 11,7 C 85 % 1014,4 hPa 0,0 l/m 0 min 0 min 0 W/m 12,9 km/h (3 Bft) 100,00 %
22.06.2021 03:30 13,9 C 13,3 C 11,7 C 84 % 1014,4 hPa 0,0 l/m 0 min 0 min 0 W/m 6,4 km/h (2 Bft) 100,00 %
22.06.2021 03:32 13,9 C 12,8 C 11,7 C 84 % 1014,3 hPa 0,0 l/m 0 min 0 min 0 W/m 16,1 km/h (3 Bft) 100,00 %
22.06.2021 03:34 13,8 C 12,8 C 11,7 C 84 % 1014,3 hPa 0,0 l/m 0 min 0 min 0 W/m 12,9 km/h (3 Bft) 100,00 %
22.06.2021 03:36 13,8 C 12,8 C 11,7 C 84 % 1014,2 hPa 0,0 l/m 0 min 0 min 0 W/m 6,4 km/h (2 Bft) 100,00 %
22.06.2021 03:38 13,8 C 12,8 C 11,7 C 84 % 1014,2 hPa 0,0 l/m 0 min 0 min 0 W/m 12,9 km/h (3 Bft) 100,00 %
22.06.2021 03:40 13,8 C 12,8 C 11,7 C 84 % 1014,2 hPa 0,0 l/m 0 min 0 min 0 W/m 9,7 km/h (2 Bft) 97,87 %
22.06.2021 03:42 13,7 C 12,8 C 11,7 C 84 % 1014,3 hPa 0,0 l/m 0 min 0 min 0 W/m 6,4 km/h (2 Bft) 97,87 %
22.06.2021 03:44 13,7 C 12,8 C 11,7 C 85 % 1014,3 hPa 0,0 l/m 0 min 0 min 0 W/m 9,7 km/h (2 Bft) 97,87 %
22.06.2021 03:46 13,7 C 12,8 C 11,7 C 85 % 1014,4 hPa 0,0 l/m 0 min 0 min 0 W/m 12,9 km/h (3 Bft) 95,65 %
22.06.2021 03:48 13,6 C 12,8 C 11,7 C 85 % 1014,3 hPa 0,0 l/m 0 min 0 min 0 W/m 12,9 km/h (3 Bft) 97,87 %
22.06.2021 03:50 13,6 C 12,8 C 11,7 C 85 % 1014,3 hPa 0,0 l/m 0 min 0 min 0 W/m 16,1 km/h (3 Bft) 95,74 %
22.06.2021 03:52 13,6 C 12,8 C 11,7 C 85 % 1014,3 hPa 0,0 l/m 0 min 0 min 0 W/m 19,3 km/h (3 Bft) 95,74 %
22.06.2021 03:54 13,6 C 12,8 C 11,7 C 85 % 1014,2 hPa 0,0 l/m 0 min 0 min 0 W/m 16,1 km/h (3 Bft) 97,87 %
22.06.2021 03:56 13,6 C 12,8 C 11,7 C 85 % 1014,2 hPa 0,0 l/m 0 min 0 min 0 W/m 9,7 km/h (2 Bft) 95,65 %
22.06.2021 03:58 13,5 C 12,8 C 11,1 C 86 % 1014,2 hPa 0,0 l/m 0 min 0 min 0 W/m 9,7 km/h (2 Bft) 95,74 %
22.06.2021 04:00 13,5 C 12,8 C 11,1 C 86 % 1014,2 hPa 0,0 l/m 0 min 0 min 0 W/m 12,9 km/h (3 Bft) 97,87 %
22.06.2021 04:02 13,5 C 12,8 C 11,1 C 86 % 1014,2 hPa 0,0 l/m 0 min 0 min 0 W/m 6,4 km/h (2 Bft) 100,00 %
22.06.2021 04:04 13,5 C 12,8 C 11,1 C 86 % 1014,1 hPa 0,0 l/m 0 min 0 min 0 W/m 9,7 km/h (2 Bft) 100,00 %
22.06.2021 04:06 13,5 C 12,8 C 11,1 C 86 % 1014,1 hPa 0,0 l/m 0 min 0 min 0 W/m 16,1 km/h (3 Bft) 97,87 %
22.06.2021 04:08 13,5 C 12,8 C 11,1 C 86 % 1014,1 hPa 0,0 l/m 0 min 0 min 0 W/m 6,4 km/h (2 Bft) 95,65 %
22.06.2021 04:10 13,4 C 12,8 C 11,1 C 86 % 1014,1 hPa 0,0 l/m 0 min 0 min 0 W/m 9,7 km/h (2 Bft) 97,87 %
22.06.2021 04:12 13,4 C 12,8 C 11,1 C 87 % 1014,1 hPa 0,0 l/m 0 min 0 min 0 W/m 12,9 km/h (3 Bft) 95,74 %
22.06.2021 04:14 13,4 C 12,8 C 11,1 C 86 % 1014,1 hPa 0,0 l/m 0 min 0 min 0 W/m 12,9 km/h (3 Bft) 97,87 %
22.06.2021 04:16 13,4 C 12,8 C 11,1 C 87 % 1014,1 hPa 0,0 l/m 0 min 0 min 0 W/m 9,7 km/h (2 Bft) 97,87 %
22.06.2021 04:18 13,3 C 12,8 C 11,1 C 87 % 1014,2 hPa 0,0 l/m 0 min 0 min 0 W/m 6,4 km/h (2 Bft) 95,74 %
22.06.2021 04:20 13,3 C 12,8 C 11,1 C 87 % 1014,2 hPa 0,0 l/m 0 min 0 min 0 W/m 9,7 km/h (2 Bft) 95,65 %
22.06.2021 04:22 13,3 C 12,2 C 11,1 C 87 % 1014,3 hPa 0,0 l/m 0 min 0 min 0 W/m 3,2 km/h (1 Bft) 95,74 %
22.06.2021 04:24 13,3 C 12,2 C 11,1 C 87 % 1014,3 hPa 0,0 l/m 0 min 0 min 0 W/m 12,9 km/h (3 Bft) 93,62 %
22.06.2021 04:26 13,2 C 12,2 C 11,1 C 87 % 1014,5 hPa 0,0 l/m 0 min 0 min 0 W/m 6,4 km/h (2 Bft) 95,65 %
22.06.2021 04:28 13,2 C 12,2 C 11,1 C 87 % 1014,5 hPa 0,0 l/m 0 min 0 min 0 W/m 6,4 km/h (2 Bft) 95,74 %
22.06.2021 04:30 13,1 C 12,2 C 11,1 C 87 % 1014,5 hPa 0,0 l/m 0 min 0 min 0 W/m 6,4 km/h (2 Bft) 95,74 %
22.06.2021 04:32 13,1 C 12,2 C 11,1 C 87 % 1014,5 hPa 0,0 l/m 0 min 0 min 0 W/m 9,7 km/h (2 Bft) 95,65 %
22.06.2021 04:34 13,1 C 12,2 C 11,1 C 88 % 1014,4 hPa 0,0 l/m 0 min 0 min 0 W/m 9,7 km/h (2 Bft) 95,74 %
22.06.2021 04:36 13,0 C 12,2 C 11,1 C 88 % 1014,4 hPa 0,0 l/m 0 min 0 min 0 W/m 16,1 km/h (3 Bft) 93,62 %
22.06.2021 04:38 13,0 C 12,2 C 11,1 C 88 % 1014,4 hPa 0,0 l/m 0 min 0 min 0 W/m 6,4 km/h (2 Bft) 91,49 %
22.06.2021 04:40 13,0 C 12,2 C 11,1 C 88 % 1014,4 hPa 0,0 l/m 0 min 0 min 0 W/m 9,7 km/h (2 Bft) 93,62 %
22.06.2021 04:42 13,0 C 12,2 C 10,6 C 88 % 1014,3 hPa 0,0 l/m 0 min 0 min 0 W/m 19,3 km/h (3 Bft) 93,62 %
22.06.2021 04:44 12,9 C 12,2 C 10,6 C 88 % 1014,3 hPa 0,0 l/m 0 min 0 min 0 W/m 16,1 km/h (3 Bft) 93,48 %
22.06.2021 04:46 12,9 C 12,2 C 10,6 C 88 % 1014,3 hPa 0,0 l/m 0 min 0 min 0 W/m 16,1 km/h (3 Bft) 93,62 %
22.06.2021 04:48 12,9 C 12,2 C 10,6 C 88 % 1014,4 hPa 0,0 l/m 0 min 0 min 0 W/m 9,7 km/h (2 Bft) 93,62 %
22.06.2021 04:50 12,8 C 12,2 C 10,6 C 88 % 1014,5 hPa 0,0 l/m 0 min 0 min 0 W/m 12,9 km/h (3 Bft) 89,36 %
22.06.2021 04:52 12,8 C 12,2 C 10,6 C 88 % 1014,4 hPa 0,0 l/m 0 min 0 min 0 W/m 9,7 km/h (2 Bft) 93,62 %
22.06.2021 04:54 12,8 C 12,2 C 10,6 C 88 % 1014,5 hPa 0,0 l/m 0 min 0 min 0 W/m 9,7 km/h (2 Bft) 93,48 %
22.06.2021 04:56 12,8 C 12,2 C 10,6 C 88 % 1014,5 hPa 0,0 l/m 0 min 0 min 0 W/m 9,7 km/h (2 Bft) 93,62 %
22.06.2021 04:58 12,8 C 12,2 C 10,6 C 88 % 1014,5 hPa 0,0 l/m 0 min 0 min 0 W/m 3,2 km/h (1 Bft) 93,62 %
22.06.2021 05:00 12,8 C 12,2 C 10,6 C 89 % 1014,6 hPa 0,0 l/m 0 min 0 min 0 W/m 9,7 km/h (2 Bft) 93,62 %
22.06.2021 05:02 12,8 C 12,2 C 10,6 C 89 % 1014,6 hPa 0,0 l/m 0 min 0 min 0 W/m 3,2 km/h (1 Bft) 93,62 %
22.06.2021 05:04 12,7 C 12,2 C 10,6 C 89 % 1014,7 hPa 0,0 l/m 0 min 0 min 0 W/m 6,4 km/h (2 Bft) 95,74 %
22.06.2021 05:06 12,7 C 12,2 C 10,6 C 89 % 1014,7 hPa 0,0 l/m 0 min 0 min 0 W/m 3,2 km/h (1 Bft) 95,65 %
22.06.2021 05:08 12,7 C 12,2 C 10,6 C 89 % 1014,6 hPa 0,0 l/m 0 min 0 min 0 W/m 3,2 km/h (1 Bft) 93,62 %
22.06.2021 05:10 12,7 C 12,2 C 10,6 C 89 % 1014,6 hPa 0,0 l/m 0 min 0 min 0 W/m 6,4 km/h (2 Bft) 95,74 %
22.06.2021 05:12 12,7 C 12,2 C 11,1 C 89 % 1014,6 hPa 0,0 l/m 0 min 0 min 0 W/m 19,3 km/h (3 Bft) 95,74 %
22.06.2021 05:14 12,7 C 12,2 C 11,1 C 89 % 1014,7 hPa 0,0 l/m 0 min 0 min 0 W/m 6,4 km/h (2 Bft) 95,74 %
22.06.2021 05:16 12,7 C 12,2 C 11,1 C 89 % 1014,7 hPa 0,0 l/m 0 min 0 min 0 W/m 6,4 km/h (2 Bft) 95,74 %
22.06.2021 05:18 12,8 C 12,2 C 11,1 C 89 % 1014,6 hPa 0,0 l/m 0 min 0 min 0 W/m 12,9 km/h (3 Bft) 97,83 %
22.06.2021 05:20 12,8 C 12,2 C 11,1 C 89 % 1014,6 hPa 0,0 l/m 0 min 0 min 0 W/m 12,9 km/h (3 Bft) 97,87 %
22.06.2021 05:22 12,7 C 12,2 C 11,1 C 89 % 1014,6 hPa 0,0 l/m 0 min 0 min 0 W/m 9,7 km/h (2 Bft) 93,62 %
22.06.2021 05:24 12,7 C 12,2 C 11,1 C 89 % 1014,5 hPa 0,0 l/m 0 min 0 min 0 W/m 9,7 km/h (2 Bft) 95,74 %
22.06.2021 05:26 12,7 C 12,2 C 11,1 C 90 % 1014,6 hPa 0,0 l/m 0 min 0 min 0 W/m 9,7 km/h (2 Bft) 95,74 %
22.06.2021 05:28 12,7 C 12,2 C 11,1 C 90 % 1014,5 hPa 0,0 l/m 0 min 0 min 0 W/m 6,4 km/h (2 Bft) 95,74 %
22.06.2021 05:30 12,7 C 12,2 C 11,1 C 90 % 1014,5 hPa 0,0 l/m 0 min 0 min 3 W/m 6,4 km/h (2 Bft) 97,83 %
22.06.2021 05:32 12,7 C 12,2 C 11,1 C 90 % 1014,6 hPa 0,0 l/m 0 min 0 min 5 W/m 9,7 km/h (2 Bft) 100,00 %
22.06.2021 05:34 12,7 C 12,2 C 11,1 C 90 % 1014,7 hPa 0,0 l/m 0 min 0 min 5 W/m 12,9 km/h (3 Bft) 100,00 %
22.06.2021 05:36 12,7 C 12,2 C 11,1 C 90 % 1014,7 hPa 0,0 l/m 0 min 0 min 7 W/m 6,4 km/h (2 Bft) 97,87 %
22.06.2021 05:38 12,7 C 12,2 C 11,1 C 90 % 1014,7 hPa 0,0 l/m 0 min 0 min 8 W/m 12,9 km/h (3 Bft) 100,00 %
22.06.2021 05:40 12,7 C 12,2 C 11,1 C 90 % 1014,7 hPa 0,0 l/m 0 min 0 min 9 W/m 9,7 km/h (2 Bft) 95,65 %
22.06.2021 05:42 12,6 C 12,2 C 11,1 C 90 % 1014,8 hPa 0,0 l/m 0 min 0 min 10 W/m 6,4 km/h (2 Bft) 97,87 %
22.06.2021 05:44 12,6 C 12,2 C 11,1 C 90 % 1014,7 hPa 0,0 l/m 0 min 0 min 11 W/m 12,9 km/h (3 Bft) 97,87 %
22.06.2021 05:46 12,6 C 12,2 C 11,1 C 90 % 1014,7 hPa 0,0 l/m 0 min 0 min 12 W/m 19,3 km/h (3 Bft) 100,00 %
22.06.2021 05:48 12,7 C 12,2 C 11,1 C 90 % 1014,7 hPa 0,0 l/m 0 min 0 min 12 W/m 12,9 km/h (3 Bft) 100,00 %
22.06.2021 05:50 12,7 C 12,2 C 11,1 C 91 % 1014,7 hPa 0,0 l/m 0 min 0 min 13 W/m 12,9 km/h (3 Bft) 100,00 %
22.06.2021 05:52 12,6 C 12,2 C 11,1 C 91 % 1014,8 hPa 0,0 l/m 0 min 0 min 14 W/m 29,0 km/h (5 Bft) 100,00 %
22.06.2021 05:54 12,6 C 12,2 C 11,1 C 91 % 1014,8 hPa 0,0 l/m 0 min 0 min 15 W/m 12,9 km/h (3 Bft) 100,00 %
22.06.2021 05:56 12,7 C 12,2 C 11,1 C 91 % 1014,8 hPa 0,0 l/m 0 min 0 min 16 W/m 19,3 km/h (3 Bft) 100,00 %
22.06.2021 05:58 12,6 C 12,2 C 11,1 C 91 % 1014,9 hPa 0,0 l/m 0 min 0 min 18 W/m 16,1 km/h (3 Bft) 97,87 %
22.06.2021 06:00 12,7 C 12,2 C 11,1 C 91 % 1014,9 hPa 0,0 l/m 0 min 0 min 19 W/m 9,7 km/h (2 Bft) 97,87 %
22.06.2021 06:02 12,6 C 12,2 C 11,1 C 91 % 1014,9 hPa 0,0 l/m 0 min 0 min 20 W/m 16,1 km/h (3 Bft) 100,00 %
22.06.2021 06:04 12,6 C 12,2 C 11,1 C 91 % 1014,9 hPa 0,0 l/m 0 min 0 min 22 W/m 16,1 km/h (3 Bft) 100,00 %
22.06.2021 06:06 12,6 C 12,2 C 11,1 C 91 % 1014,9 hPa 0,0 l/m 0 min 0 min 24 W/m 12,9 km/h (3 Bft) 100,00 %
22.06.2021 06:08 12,6 C 12,2 C 11,1 C 91 % 1014,9 hPa 0,0 l/m 0 min 0 min 26 W/m 12,9 km/h (3 Bft) 100,00 %
22.06.2021 06:10 12,6 C 12,2 C 11,1 C 91 % 1015,0 hPa 0,0 l/m 0 min 0 min 27 W/m 9,7 km/h (2 Bft) 100,00 %
22.06.2021 06:12 12,7 C 12,2 C 11,1 C 91 % 1014,9 hPa 0,0 l/m 0 min 0 min 29 W/m 9,7 km/h (2 Bft) 100,00 %
22.06.2021 06:14 12,7 C 12,2 C 11,1 C 91 % 1015,0 hPa 0,0 l/m 0 min 0 min 31 W/m 9,7 km/h (2 Bft) 100,00 %
22.06.2021 06:16 12,7 C 12,2 C 11,1 C 91 % 1015,0 hPa 0,0 l/m 0 min 0 min 33 W/m 9,7 km/h (2 Bft) 100,00 %
22.06.2021 06:18 12,7 C 12,2 C 11,1 C 91 % 1015,0 hPa 0,0 l/m 0 min 0 min 37 W/m 6,4 km/h (2 Bft) 100,00 %
22.06.2021 06:20 12,7 C 12,2 C 11,1 C 91 % 1015,0 hPa 0,0 l/m 0 min 0 min 41 W/m 16,1 km/h (3 Bft) 97,87 %
22.06.2021 06:22 12,7 C 12,2 C 11,1 C 91 % 1015,0 hPa 0,0 l/m 0 min 0 min 43 W/m 12,9 km/h (3 Bft) 100,00 %
22.06.2021 06:24 12,8 C 12,2 C 11,1 C 91 % 1015,0 hPa 0,0 l/m 0 min 0 min 44 W/m 12,9 km/h (3 Bft) 100,00 %
22.06.2021 06:26 12,8 C 12,2 C 11,1 C 91 % 1015,0 hPa 0,0 l/m 0 min 0 min 46 W/m 12,9 km/h (3 Bft) 100,00 %
22.06.2021 06:28 12,8 C 12,8 C 11,1 C 91 % 1015,1 hPa 0,0 l/m 0 min 0 min 47 W/m 6,4 km/h (2 Bft) 100,00 %
22.06.2021 06:30 12,8 C 12,8 C 11,1 C 91 % 1015,2 hPa 0,0 l/m 0 min 0 min 49 W/m 6,4 km/h (2 Bft) 100,00 %
22.06.2021 06:32 12,8 C 12,8 C 11,1 C 91 % 1015,2 hPa 0,0 l/m 0 min 0 min 50 W/m 12,9 km/h (3 Bft) 100,00 %
22.06.2021 06:34 12,9 C 12,8 C 11,1 C 91 % 1015,2 hPa 0,0 l/m 0 min 0 min 49 W/m 12,9 km/h (3 Bft) 97,87 %
22.06.2021 06:36 12,9 C 12,8 C 11,1 C 91 % 1015,1 hPa 0,0 l/m 0 min 0 min 51 W/m 12,9 km/h (3 Bft) 100,00 %
22.06.2021 06:38 12,9 C 12,8 C 11,1 C 91 % 1015,1 hPa 0,0 l/m 0 min 0 min 54 W/m 12,9 km/h (3 Bft) 100,00 %
22.06.2021 06:40 12,9 C 12,8 C 11,7 C 91 % 1015,1 hPa 0,0 l/m 0 min 0 min 54 W/m 9,7 km/h (2 Bft) 100,00 %
22.06.2021 06:42 12,9 C 12,8 C 11,1 C 91 % 1015,2 hPa 0,0 l/m 0 min 0 min 54 W/m 16,1 km/h (3 Bft) 97,87 %
22.06.2021 06:44 12,9 C 12,8 C 11,7 C 91 % 1015,1 hPa 0,0 l/m 0 min 0 min 53 W/m 9,7 km/h (2 Bft) 97,87 %
22.06.2021 06:46 12,9 C 12,8 C 11,7 C 91 % 1015,2 hPa 0,0 l/m 0 min 0 min 48 W/m 9,7 km/h (2 Bft) 95,74 %
22.06.2021 06:48 13,0 C 12,8 C 11,1 C 91 % 1015,2 hPa 0,0 l/m 0 min 0 min 48 W/m 16,1 km/h (3 Bft) 100,00 %
22.06.2021 06:50 13,0 C 12,8 C 11,7 C 91 % 1015,1 hPa 0,0 l/m 0 min 0 min 61 W/m 16,1 km/h (3 Bft) 100,00 %
22.06.2021 06:52 13,0 C 12,8 C 11,7 C 91 % 1015,1 hPa 0,0 l/m 0 min 0 min 63 W/m 16,1 km/h (3 Bft) 97,83 %
22.06.2021 06:54 13,0 C 12,8 C 11,7 C 91 % 1015,1 hPa 0,0 l/m 0 min 0 min 66 W/m 9,7 km/h (2 Bft) 95,74 %
22.06.2021 06:56 13,0 C 12,8 C 11,7 C 91 % 1015,1 hPa 0,0 l/m 0 min 0 min 72 W/m 12,9 km/h (3 Bft) 97,87 %
22.06.2021 06:58 13,0 C 12,8 C 11,7 C 91 % 1015,2 hPa 0,0 l/m 0 min 0 min 76 W/m 12,9 km/h (3 Bft) 97,87 %
22.06.2021 07:00 13,0 C 12,8 C 11,7 C 91 % 1015,2 hPa 0,0 l/m 0 min 0 min 79 W/m 19,3 km/h (3 Bft) 95,74 %
22.06.2021 07:02 13,0 C 12,8 C 11,7 C 91 % 1015,2 hPa 0,0 l/m 0 min 0 min 82 W/m 25,7 km/h (4 Bft) 95,65 %
22.06.2021 07:04 13,0 C 12,8 C 11,7 C 91 % 1015,2 hPa 0,0 l/m 0 min 0 min 86 W/m 22,5 km/h (4 Bft) 97,87 %
22.06.2021 07:06 13,0 C 12,8 C 11,7 C 91 % 1015,2 hPa 0,0 l/m 0 min 0 min 86 W/m 12,9 km/h (3 Bft) 97,87 %
22.06.2021 07:08 13,1 C 12,8 C 11,7 C 91 % 1015,2 hPa 0,0 l/m 0 min 0 min 87 W/m 12,9 km/h (3 Bft) 97,87 %
22.06.2021 07:10 13,1 C 12,8 C 11,7 C 91 % 1015,2 hPa 0,0 l/m 0 min 0 min 89 W/m 12,9 km/h (3 Bft) 95,35 %
22.06.2021 07:12 13,1 C 12,8 C 11,7 C 91 % 1015,3 hPa 0,0 l/m 0 min 0 min 90 W/m 9,7 km/h (2 Bft) 97,87 %
22.06.2021 07:14 13,1 C 12,8 C 11,7 C 91 % 1015,2 hPa 0,0 l/m 0 min 0 min 91 W/m 19,3 km/h (3 Bft) 97,87 %
22.06.2021 07:15 13,1 C 13,3 C 11,7 C 91 % 1015,2 hPa 0,0 l/m 0 min 0 min 92 W/m 19,3 km/h (3 Bft) 100,00 %
22.06.2021 07:18 13,2 C 13,3 C 11,7 C 91 % 1015,2 hPa 0,0 l/m 0 min 0 min 98 W/m 9,7 km/h (2 Bft) 97,10 %
22.06.2021 07:20 13,2 C 13,3 C 11,7 C 91 % 1015,2 hPa 0,0 l/m 0 min 0 min 98 W/m 22,5 km/h (4 Bft) 97,87 %
22.06.2021 07:22 13,2 C 13,3 C 11,7 C 91 % 1015,3 hPa 0,0 l/m 0 min 0 min 98 W/m 6,4 km/h (2 Bft) 97,83 %
22.06.2021 07:24 13,3 C 13,3 C 11,7 C 91 % 1015,3 hPa 0,0 l/m 0 min 0 min 98 W/m 9,7 km/h (2 Bft) 95,74 %
22.06.2021 07:26 13,2 C 13,3 C 11,7 C 91 % 1015,4 hPa 0,0 l/m 0 min 0 min 94 W/m 19,3 km/h (3 Bft) 97,87 %
22.06.2021 07:28 13,2 C 13,3 C 11,7 C 90 % 1015,4 hPa 0,0 l/m 0 min 0 min 91 W/m 12,9 km/h (3 Bft) 97,87 %
22.06.2021 07:30 13,3 C 13,3 C 11,7 C 90 % 1015,4 hPa 0,0 l/m 0 min 0 min 89 W/m 9,7 km/h (2 Bft) 97,87 %
22.06.2021 07:32 13,3 C 13,3 C 11,7 C 90 % 1015,4 hPa 0,0 l/m 0 min 0 min 87 W/m 6,4 km/h (2 Bft) 97,87 %
22.06.2021 07:34 13,3 C 13,3 C 12,3 C 90 % 1015,4 hPa 0,0 l/m 0 min 0 min 90 W/m 9,7 km/h (2 Bft) 97,83 %
22.06.2021 07:36 13,3 C 13,3 C 12,3 C 90 % 1015,5 hPa 0,0 l/m 0 min 0 min 92 W/m 12,9 km/h (3 Bft) 97,87 %
22.06.2021 07:38 13,4 C 13,3 C 11,7 C 90 % 1015,6 hPa 0,0 l/m 0 min 0 min 100 W/m 9,7 km/h (2 Bft) 97,44 %
22.06.2021 07:40 13,4 C 13,3 C 12,3 C 90 % 1015,6 hPa 0,0 l/m 0 min 0 min 108 W/m 12,9 km/h (3 Bft) 97,87 %
22.06.2021 07:42 13,4 C 13,3 C 12,3 C 90 % 1015,6 hPa 0,0 l/m 0 min 0 min 117 W/m 12,9 km/h (3 Bft) 97,87 %
22.06.2021 07:44 13,4 C 13,9 C 12,3 C 90 % 1015,5 hPa 0,0 l/m 0 min 0 min 120 W/m 9,7 km/h (2 Bft) 97,87 %
22.06.2021 07:46 13,5 C 13,9 C 12,3 C 90 % 1015,5 hPa 0,0 l/m 0 min 0 min 157 W/m 9,7 km/h (2 Bft) 95,74 %
22.06.2021 07:48 13,5 C 13,9 C 12,3 C 90 % 1015,4 hPa 0,0 l/m 2 min 0 min 285 W/m 6,4 km/h (2 Bft) 97,83 %
22.06.2021 07:50 13,6 C 14,4 C 12,3 C 90 % 1015,5 hPa 0,0 l/m 2 min 0 min 295 W/m 9,7 km/h (2 Bft) 97,87 %
22.06.2021 07:52 13,6 C 14,4 C 12,8 C 90 % 1015,5 hPa 0,0 l/m 2 min 0 min 191 W/m 12,9 km/h (3 Bft) 97,87 %
22.06.2021 07:54 13,8 C 14,4 C 12,8 C 91 % 1015,6 hPa 0,0 l/m 0 min 0 min 163 W/m 6,4 km/h (2 Bft) 97,87 %
22.06.2021 07:56 13,8 C 14,4 C 12,8 C 90 % 1015,7 hPa 0,0 l/m 0 min 0 min 137 W/m 6,4 km/h (2 Bft) 97,87 %
22.06.2021 07:58 13,9 C 14,4 C 12,8 C 90 % 1015,7 hPa 0,0 l/m 0 min 0 min 107 W/m 9,7 km/h (2 Bft) 97,87 %
22.06.2021 08:00 13,9 C 14,4 C 12,8 C 90 % 1015,7 hPa 0,0 l/m 0 min 0 min 90 W/m 9,7 km/h (2 Bft) 97,83 %
22.06.2021 08:02 13,9 C 14,4 C 12,3 C 90 % 1015,6 hPa 0,0 l/m 0 min 0 min 83 W/m 9,7 km/h (2 Bft) 93,62 %
22.06.2021 08:04 13,9 C 13,9 C 12,3 C 89 % 1015,6 hPa 0,0 l/m 0 min 0 min 86 W/m 9,7 km/h (2 Bft) 97,87 %
22.06.2021 08:06 13,9 C 13,9 C 12,3 C 89 % 1015,6 hPa 0,0 l/m 0 min 0 min 95 W/m 12,9 km/h (3 Bft) 97,87 %
22.06.2021 08:08 13,9 C 13,9 C 12,3 C 89 % 1015,6 hPa 0,0 l/m 0 min 0 min 104 W/m 12,9 km/h (3 Bft) 95,74 %
22.06.2021 08:10 13,8 C 13,9 C 12,3 C 89 % 1015,6 hPa 0,0 l/m 0 min 0 min 114 W/m 9,7 km/h (2 Bft) 97,87 %
22.06.2021 08:12 13,8 C 13,9 C 12,3 C 89 % 1015,5 hPa 0,0 l/m 0 min 0 min 123 W/m 16,1 km/h (3 Bft) 97,83 %
22.06.2021 08:14 13,8 C 13,9 C 12,3 C 89 % 1015,5 hPa 0,0 l/m 0 min 0 min 133 W/m 9,7 km/h (2 Bft) 97,87 %
22.06.2021 08:16 13,8 C 13,9 C 12,3 C 89 % 1015,5 hPa 0,0 l/m 0 min 0 min 139 W/m 16,1 km/h (3 Bft) 97,87 %
22.06.2021 08:18 13,8 C 13,9 C 12,3 C 88 % 1015,5 hPa 0,0 l/m 0 min 0 min 141 W/m 12,9 km/h (3 Bft) 95,74 %
22.06.2021 08:20 13,8 C 13,9 C 12,3 C 88 % 1015,5 hPa 0,0 l/m 0 min 0 min 141 W/m 16,1 km/h (3 Bft) 95,74 %
22.06.2021 08:22 13,8 C 13,9 C 12,3 C 88 % 1015,5 hPa 0,0 l/m 0 min 0 min 143 W/m 19,3 km/h (3 Bft) 97,83 %
22.06.2021 08:24 13,8 C 13,9 C 12,3 C 88 % 1015,5 hPa 0,0 l/m 0 min 0 min 147 W/m 22,5 km/h (4 Bft) 100,00 %
22.06.2021 08:26 13,9 C 13,9 C 12,3 C 88 % 1015,6 hPa 0,0 l/m 0 min 0 min 151 W/m 12,9 km/h (3 Bft) 100,00 %
22.06.2021 08:28 13,9 C 13,9 C 12,3 C 88 % 1015,6 hPa 0,0 l/m 0 min 0 min 151 W/m 9,7 km/h (2 Bft) 100,00 %
22.06.2021 08:30 13,9 C 14,4 C 12,3 C 88 % 1015,6 hPa 0,0 l/m 0 min 0 min 157 W/m 9,7 km/h (2 Bft) 97,87 %
22.06.2021 08:32 13,9 C 14,4 C 12,8 C 88 % 1015,6 hPa 0,0 l/m 0 min 0 min 167 W/m 12,9 km/h (3 Bft) 100,00 %
22.06.2021 08:34 14,0 C 14,4 C 12,8 C 88 % 1015,6 hPa 0,0 l/m 0 min 0 min 185 W/m 9,7 km/h (2 Bft) 100,00 %
22.06.2021 08:36 14,0 C 15,0 C 12,8 C 88 % 1015,6 hPa 0,0 l/m 0 min 0 min 216 W/m 12,9 km/h (3 Bft) 100,00 %
22.06.2021 08:38 14,1 C 15,0 C 12,8 C 88 % 1015,7 hPa 0,0 l/m 2 min 0 min 254 W/m 12,9 km/h (3 Bft) 100,00 %
22.06.2021 08:40 14,2 C 15,0 C 13,4 C 88 % 1015,7 hPa 0,0 l/m 2 min 0 min 246 W/m 16,1 km/h (3 Bft) 100,00 %
22.06.2021 08:42 14,2 C 15,6 C 13,4 C 88 % 1015,7 hPa 0,0 l/m 2 min 0 min 246 W/m 9,7 km/h (2 Bft) 100,00 %
22.06.2021 08:44 14,3 C 15,6 C 13,4 C 88 % 1015,7 hPa 0,0 l/m 0 min 0 min 229 W/m 9,7 km/h (2 Bft) 97,87 %
22.06.2021 08:46 14,4 C 16,1 C 13,4 C 88 % 1015,7 hPa 0,0 l/m 0 min 0 min 234 W/m 9,7 km/h (2 Bft) 97,83 %
22.06.2021 08:47 14,5 C 16,7 C 13,9 C 88 % 1015,7 hPa 0,0 l/m 0 min 0 min 234 W/m 12,9 km/h (3 Bft) 97,87 %
22.06.2021 08:50 14,6 C 17,2 C 14,5 C 88 % 1015,7 hPa 0,0 l/m 3 min 0 min 401 W/m 12,9 km/h (3 Bft) 95,74 %
22.06.2021 08:52 14,8 C 18,3 C 15,0 C 88 % 1015,7 hPa 0,0 l/m 2 min 0 min 544 W/m 19,3 km/h (3 Bft) 97,87 %
22.06.2021 08:54 15,0 C 17,8 C 15,0 C 87 % 1015,7 hPa 0,0 l/m 2 min 0 min 530 W/m 19,3 km/h (3 Bft) 97,87 %
22.06.2021 08:56 15,1 C 17,2 C 14,5 C 85 % 1015,7 hPa 0,0 l/m 0 min 0 min 242 W/m 16,1 km/h (3 Bft) 95,74 %
22.06.2021 08:58 15,1 C 16,7 C 14,5 C 85 % 1015,7 hPa 0,0 l/m 0 min 0 min 212 W/m 12,9 km/h (3 Bft) 95,65 %
22.06.2021 09:00 15,1 C 16,1 C 13,9 C 84 % 1015,7 hPa 0,0 l/m 0 min 0 min 202 W/m 19,3 km/h (3 Bft) 97,87 %
22.06.2021 09:02 15,2 C 15,6 C 13,9 C 84 % 1015,7 hPa 0,0 l/m 0 min 0 min 197 W/m 16,1 km/h (3 Bft) 95,74 %
22.06.2021 09:04 15,1 C 15,6 C 13,9 C 84 % 1015,7 hPa 0,0 l/m 0 min 0 min 189 W/m 9,7 km/h (2 Bft) 97,87 %
22.06.2021 09:06 15,1 C 15,6 C 13,4 C 84 % 1015,8 hPa 0,0 l/m 0 min 0 min 177 W/m 9,7 km/h (2 Bft) 97,87 %
22.06.2021 09:08 15,1 C 15,6 C 13,4 C 84 % 1015,9 hPa 0,0 l/m 0 min 0 min 166 W/m 6,4 km/h (2 Bft) 97,87 %
22.06.2021 09:10 15,1 C 15,6 C 13,4 C 85 % 1015,9 hPa 0,0 l/m 0 min 0 min 154 W/m 12,9 km/h (3 Bft) 97,83 %
22.06.2021 09:12 15,1 C 15,6 C 13,4 C 84 % 1015,8 hPa 0,0 l/m 0 min 0 min 153 W/m 12,9 km/h (3 Bft) 97,87 %
22.06.2021 09:14 15,0 C 15,0 C 13,4 C 84 % 1015,8 hPa 0,0 l/m 0 min 0 min 146 W/m 12,9 km/h (3 Bft) 97,87 %
22.06.2021 09:16 15,0 C 15,0 C 13,4 C 84 % 1015,8 hPa 0,0 l/m 0 min 0 min 131 W/m 9,7 km/h (2 Bft) 97,87 %
22.06.2021 09:18 15,0 C 15,0 C 13,4 C 84 % 1015,9 hPa 0,0 l/m 0 min 0 min 132 W/m 16,1 km/h (3 Bft) 97,87 %
22.06.2021 09:20 15,0 C 14,4 C 12,8 C 84 % 1015,9 hPa 0,0 l/m 0 min 0 min 123 W/m 9,7 km/h (2 Bft) 97,87 %
22.06.2021 09:22 14,9 C 14,4 C 12,8 C 84 % 1015,8 hPa 0,0 l/m 0 min 0 min 125 W/m 19,3 km/h (3 Bft) 97,83 %
22.06.2021 09:24 14,9 C 14,4 C 12,8 C 84 % 1015,8 hPa 0,0 l/m 0 min 0 min 127 W/m 9,7 km/h (2 Bft) 97,87 %
22.06.2021 09:26 14,9 C 14,4 C 12,8 C 84 % 1015,8 hPa 0,0 l/m 0 min 0 min 128 W/m 9,7 km/h (2 Bft) 95,74 %
22.06.2021 09:28 14,9 C 14,4 C 12,8 C 85 % 1015,7 hPa 0,0 l/m 0 min 0 min 126 W/m 9,7 km/h (2 Bft) 97,87 %
22.06.2021 09:30 14,8 C 15,0 C 12,8 C 85 % 1015,7 hPa 0,0 l/m 0 min 0 min 129 W/m 6,4 km/h (2 Bft) 97,87 %
22.06.2021 09:32 14,8 C 15,0 C 12,8 C 85 % 1015,8 hPa 0,0 l/m 0 min 0 min 129 W/m 9,7 km/h (2 Bft) 97,87 %
22.06.2021 09:34 14,8 C 14,4 C 12,8 C 85 % 1015,9 hPa 0,0 l/m 0 min 0 min 126 W/m 12,9 km/h (3 Bft) 97,83 %
22.06.2021 09:36 14,8 C 14,4 C 12,8 C 85 % 1015,9 hPa 0,0 l/m 0 min 0 min 114 W/m 9,7 km/h (2 Bft) 97,87 %
22.06.2021 09:38 14,8 C 14,4 C 12,8 C 85 % 1015,9 hPa 0,0 l/m 0 min 0 min 106 W/m 9,7 km/h (2 Bft) 97,92 %
22.06.2021 09:40 14,8 C 14,4 C 12,8 C 85 % 1015,9 hPa 0,0 l/m 0 min 0 min 109 W/m 19,3 km/h (3 Bft) 97,87 %
22.06.2021 09:42 14,7 C 14,4 C 12,8 C 85 % 1015,9 hPa 0,0 l/m 0 min 0 min 102 W/m 12,9 km/h (3 Bft) 93,62 %
22.06.2021 09:44 14,7 C 14,4 C 12,8 C 85 % 1015,9 hPa 0,0 l/m 0 min 0 min 95 W/m 6,4 km/h (2 Bft) 97,87 %
22.06.2021 09:46 14,7 C 14,4 C 12,8 C 85 % 1015,9 hPa 0,0 l/m 0 min 0 min 92 W/m 9,7 km/h (2 Bft) 97,83 %
22.06.2021 09:48 14,7 C 14,4 C 12,8 C 85 % 1015,9 hPa 0,0 l/m 0 min 0 min 96 W/m 9,7 km/h (2 Bft) 95,74 %
22.06.2021 09:50 14,8 C 14,4 C 12,8 C 85 % 1015,9 hPa 0,0 l/m 0 min 0 min 94 W/m 6,4 km/h (2 Bft) 93,62 %
22.06.2021 09:52 14,7 C 14,4 C 12,8 C 85 % 1015,9 hPa 0,0 l/m 0 min 0 min 97 W/m 9,7 km/h (2 Bft) 95,74 %
22.06.2021 09:54 14,7 C 14,4 C 12,8 C 85 % 1015,9 hPa 0,0 l/m 0 min 0 min 95 W/m 9,7 km/h (2 Bft) 97,87 %
22.06.2021 09:56 14,7 C 14,4 C 12,8 C 85 % 1015,9 hPa 0,0 l/m 0 min 2 min 95 W/m 9,7 km/h (2 Bft) 95,65 %
22.06.2021 09:58 14,7 C 14,4 C 12,8 C 85 % 1015,9 hPa 0,0 l/m 0 min 0 min 93 W/m 3,2 km/h (1 Bft) 97,87 %
22.06.2021 10:00 14,7 C 14,4 C 12,8 C 85 % 1016,0 hPa 0,0 l/m 0 min 0 min 94 W/m 9,7 km/h (2 Bft) 97,87 %
22.06.2021 10:02 14,7 C 14,4 C 12,8 C 85 % 1015,9 hPa 0,0 l/m 0 min 0 min 97 W/m 12,9 km/h (3 Bft) 95,74 %
22.06.2021 10:04 14,7 C 14,4 C 12,8 C 85 % 1015,9 hPa 0,0 l/m 0 min 2 min 103 W/m 12,9 km/h (3 Bft) 97,87 %
22.06.2021 10:06 14,7 C 14,4 C 12,3 C 86 % 1015,8 hPa 0,0 l/m 0 min 2 min 110 W/m 9,7 km/h (2 Bft) 97,87 %
22.06.2021 10:08 14,7 C 14,4 C 12,3 C 86 % 1015,9 hPa 0,0 l/m 0 min 2 min 117 W/m 12,9 km/h (3 Bft) 95,74 %
22.06.2021 10:10 14,7 C 14,4 C 12,3 C 86 % 1015,9 hPa 0,2 l/m 0 min 2 min 121 W/m 12,9 km/h (3 Bft) 97,87 %
22.06.2021 10:12 14,7 C 14,4 C 12,3 C 87 % 1015,9 hPa 0,0 l/m 0 min 2 min 133 W/m 12,9 km/h (3 Bft) 95,74 %
22.06.2021 10:14 14,6 C 14,4 C 12,3 C 87 % 1015,9 hPa 0,0 l/m 0 min 2 min 152 W/m 9,7 km/h (2 Bft) 95,74 %
22.06.2021 10:16 14,6 C 14,4 C 11,7 C 87 % 1015,9 hPa 0,2 l/m 0 min 2 min 174 W/m 12,9 km/h (3 Bft) 97,87 %
22.06.2021 10:18 14,6 C 14,4 C 11,7 C 88 % 1015,9 hPa 0,0 l/m 0 min 2 min 192 W/m 12,9 km/h (3 Bft) 97,87 %
22.06.2021 10:20 14,5 C 14,4 C 11,7 C 88 % 1015,9 hPa 0,0 l/m 0 min 2 min 225 W/m 16,1 km/h (3 Bft) 97,83 %
22.06.2021 10:22 14,5 C 14,4 C 12,3 C 88 % 1016,0 hPa 0,0 l/m 0 min 2 min 263 W/m 12,9 km/h (3 Bft) 95,74 %
22.06.2021 10:24 14,5 C 15,0 C 12,3 C 88 % 1015,9 hPa 0,0 l/m 0 min 2 min 296 W/m 12,9 km/h (3 Bft) 95,74 %
22.06.2021 10:26 14,5 C 15,0 C 12,3 C 89 % 1015,9 hPa 0,0 l/m 0 min 2 min 288 W/m 12,9 km/h (3 Bft) 95,74 %
22.06.2021 10:28 14,6 C 15,0 C 12,3 C 89 % 1015,9 hPa 0,0 l/m 0 min 0 min 238 W/m 12,9 km/h (3 Bft) 95,74 %
22.06.2021 10:30 14,6 C 15,0 C 12,3 C 89 % 1015,9 hPa 0,0 l/m 0 min 0 min 214 W/m 6,4 km/h (2 Bft) 95,65 %
22.06.2021 10:32 14,6 C 15,6 C 12,8 C 89 % 1015,9 hPa 0,0 l/m 0 min 0 min 287 W/m 9,7 km/h (2 Bft) 93,62 %
22.06.2021 10:34 14,8 C 16,1 C 13,4 C 89 % 1015,9 hPa 0,0 l/m 0 min 0 min 349 W/m 9,7 km/h (2 Bft) 95,74 %
22.06.2021 10:36 14,8 C 16,7 C 13,9 C 89 % 1015,9 hPa 0,0 l/m 0 min 0 min 323 W/m 12,9 km/h (3 Bft) 97,87 %
22.06.2021 10:38 14,9 C 17,2 C 15,0 C 89 % 1015,9 hPa 0,0 l/m 0 min 0 min 323 W/m 9,7 km/h (2 Bft) 95,74 %
22.06.2021 10:40 15,0 C 17,2 C 15,0 C 89 % 1015,9 hPa 0,0 l/m 2 min 0 min 393 W/m 9,7 km/h (2 Bft) 97,87 %
22.06.2021 10:42 15,1 C 17,2 C 14,5 C 88 % 1015,9 hPa 0,0 l/m 2 min 0 min 408 W/m 19,3 km/h (3 Bft) 97,83 %
22.06.2021 10:44 15,2 C 17,2 C 14,5 C 87 % 1015,9 hPa 0,0 l/m 0 min 0 min 356 W/m 12,9 km/h (3 Bft) 95,74 %
22.06.2021 10:46 15,3 C 17,2 C 14,5 C 87 % 1015,9 hPa 0,0 l/m 0 min 0 min 318 W/m 6,4 km/h (2 Bft) 97,87 %
22.06.2021 10:48 15,4 C 17,2 C 15,0 C 87 % 1015,9 hPa 0,0 l/m 0 min 0 min 343 W/m 12,9 km/h (3 Bft) 93,62 %
22.06.2021 10:50 15,5 C 17,2 C 15,0 C 86 % 1015,9 hPa 0,0 l/m 0 min 0 min 342 W/m 12,9 km/h (3 Bft) 97,87 %
22.06.2021 10:52 15,6 C 17,2 C 14,5 C 85 % 1015,9 hPa 0,0 l/m 0 min 0 min 283 W/m 16,1 km/h (3 Bft) 97,87 %
22.06.2021 10:54 15,6 C 17,2 C 15,0 C 85 % 1015,9 hPa 0,0 l/m 0 min 0 min 309 W/m 9,7 km/h (2 Bft) 97,83 %
22.06.2021 10:56 15,7 C 17,2 C 14,5 C 85 % 1016,0 hPa 0,0 l/m 0 min 0 min 283 W/m 22,5 km/h (4 Bft) 95,74 %
22.06.2021 10:58 15,8 C 16,7 C 14,5 C 84 % 1016,0 hPa 0,0 l/m 0 min 0 min 254 W/m 12,9 km/h (3 Bft) 97,87 %
22.06.2021 11:00 15,7 C 16,7 C 14,5 C 83 % 1016,0 hPa 0,0 l/m 0 min 0 min 278 W/m 12,9 km/h (3 Bft) 97,87 %
22.06.2021 11:02 15,8 C 16,7 C 14,5 C 83 % 1016,0 hPa 0,0 l/m 0 min 0 min 307 W/m 19,3 km/h (3 Bft) 97,87 %
22.06.2021 11:04 15,8 C 16,7 C 14,5 C 83 % 1015,9 hPa 0,0 l/m 0 min 0 min 302 W/m 16,1 km/h (3 Bft) 97,87 %
22.06.2021 11:06 15,8 C 16,7 C 14,5 C 82 % 1016,0 hPa 0,0 l/m 0 min 0 min 295 W/m 16,1 km/h (3 Bft) 97,83 %
22.06.2021 11:08 15,9 C 16,7 C 14,5 C 82 % 1015,9 hPa 0,0 l/m 0 min 0 min 342 W/m 12,9 km/h (3 Bft) 97,87 %
22.06.2021 11:10 15,9 C 16,7 C 15,0 C 82 % 1016,0 hPa 0,0 l/m 0 min 0 min 341 W/m 16,1 km/h (3 Bft) 95,74 %
22.06.2021 11:12 16,0 C 17,2 C 15,0 C 82 % 1016,1 hPa 0,0 l/m 0 min 0 min 376 W/m 9,7 km/h (2 Bft) 97,87 %
22.06.2021 11:14 16,1 C 17,8 C 15,0 C 83 % 1016,1 hPa 0,0 l/m 0 min 0 min 315 W/m 9,7 km/h (2 Bft) 100,00 %
22.06.2021 11:16 16,1 C 17,2 C 15,0 C 82 % 1016,0 hPa 0,0 l/m 0 min 0 min 234 W/m 19,3 km/h (3 Bft) 100,00 %
22.06.2021 11:18 16,1 C 16,7 C 14,5 C 81 % 1016,0 hPa 0,0 l/m 0 min 0 min 196 W/m 16,1 km/h (3 Bft) 100,00 %
22.06.2021 11:20 16,1 C 16,7 C 14,5 C 81 % 1015,9 hPa 0,0 l/m 0 min 0 min 182 W/m 12,9 km/h (3 Bft) 100,00 %
22.06.2021 11:22 16,1 C 16,7 C 13,9 C 81 % 1015,9 hPa 0,0 l/m 0 min 0 min 186 W/m 9,7 km/h (2 Bft) 100,00 %
22.06.2021 11:24 16,1 C 16,7 C 13,9 C 81 % 1015,9 hPa 0,0 l/m 0 min 0 min 239 W/m 9,7 km/h (2 Bft) 100,00 %
22.06.2021 11:26 16,1 C 16,7 C 14,5 C 81 % 1016,0 hPa 0,0 l/m 0 min 0 min 301 W/m 12,9 km/h (3 Bft) 100,00 %
22.06.2021 11:28 16,1 C 16,7 C 14,5 C 81 % 1015,9 hPa 0,0 l/m 0 min 0 min 334 W/m 12,9 km/h (3 Bft) 100,00 %
22.06.2021 11:30 16,1 C 17,2 C 14,5 C 81 % 1015,9 hPa 0,0 l/m 0 min 0 min 343 W/m 12,9 km/h (3 Bft) 100,00 %
22.06.2021 11:32 16,1 C 17,2 C 15,0 C 81 % 1015,9 hPa 0,0 l/m 0 min 0 min 361 W/m 25,7 km/h (4 Bft) 100,00 %
22.06.2021 11:34 16,2 C 17,2 C 15,0 C 80 % 1015,9 hPa 0,0 l/m 0 min 0 min 356 W/m 12,9 km/h (3 Bft) 100,00 %
22.06.2021 11:36 16,3 C 17,2 C 15,0 C 81 % 1015,9 hPa 0,0 l/m 0 min 0 min 295 W/m 16,1 km/h (3 Bft) 100,00 %
22.06.2021 11:38 16,3 C 17,2 C 15,0 C 80 % 1015,9 hPa 0,0 l/m 0 min 0 min 258 W/m 12,9 km/h (3 Bft) 100,00 %
22.06.2021 11:40 16,4 C 17,2 C 15,0 C 80 % 1015,9 hPa 0,0 l/m 0 min 0 min 244 W/m 16,1 km/h (3 Bft) 100,00 %
22.06.2021 11:42 16,4 C 17,2 C 15,0 C 80 % 1015,9 hPa 0,0 l/m 0 min 0 min 300 W/m 25,7 km/h (4 Bft) 100,00 %
22.06.2021 11:44 16,4 C 17,2 C 15,0 C 79 % 1015,9 hPa 0,0 l/m 0 min 0 min 290 W/m 12,9 km/h (3 Bft) 100,00 %
22.06.2021 11:46 16,4 C 16,7 C 14,5 C 79 % 1015,9 hPa 0,0 l/m 0 min 0 min 260 W/m 12,9 km/h (3 Bft) 97,87 %
22.06.2021 11:48 16,4 C 17,2 C 14,5 C 79 % 1015,9 hPa 0,0 l/m 0 min 0 min 247 W/m 16,1 km/h (3 Bft) 100,00 %
22.06.2021 11:50 16,4 C 16,7 C 14,5 C 79 % 1015,9 hPa 0,0 l/m 0 min 0 min 265 W/m 19,3 km/h (3 Bft) 100,00 %
22.06.2021 11:52 16,4 C 17,2 C 15,0 C 79 % 1016,1 hPa 0,0 l/m 0 min 0 min 283 W/m 16,1 km/h (3 Bft) 100,00 %
22.06.2021 11:54 16,5 C 17,2 C 15,0 C 79 % 1016,1 hPa 0,0 l/m 0 min 0 min 282 W/m 12,9 km/h (3 Bft) 100,00 %
22.06.2021 11:56 16,5 C 17,2 C 15,0 C 79 % 1016,1 hPa 0,0 l/m 0 min 0 min 301 W/m 19,3 km/h (3 Bft) 97,87 %
22.06.2021 11:58 16,5 C 17,2 C 15,0 C 79 % 1016,2 hPa 0,0 l/m 0 min 0 min 323 W/m 16,1 km/h (3 Bft) 100,00 %
22.06.2021 12:00 16,6 C 17,2 C 15,0 C 79 % 1016,1 hPa 0,0 l/m 0 min 0 min 301 W/m 12,9 km/h (3 Bft) 100,00 %
22.06.2021 12:02 16,6 C 17,2 C 14,5 C 79 % 1016,2 hPa 0,0 l/m 0 min 0 min 263 W/m 16,1 km/h (3 Bft) 100,00 %
22.06.2021 12:04 16,6 C 17,2 C 14,5 C 78 % 1016,2 hPa 0,0 l/m 0 min 0 min 251 W/m 12,9 km/h (3 Bft) 100,00 %
22.06.2021 12:08 16,6 C 17,2 C 14,5 C 78 % 1016,2 hPa 0,0 l/m 0 min 0 min 274 W/m 25,7 km/h (4 Bft) 100,00 %
22.06.2021 12:10 16,6 C 17,2 C 15,0 C 79 % 1016,2 hPa 0,0 l/m 0 min 0 min 251 W/m 9,7 km/h (2 Bft) 100,00 %
22.06.2021 12:12 16,6 C 17,2 C 14,5 C 78 % 1016,2 hPa 0,0 l/m 0 min 0 min 212 W/m 12,9 km/h (3 Bft) 100,00 %
22.06.2021 12:14 16,6 C 16,7 C 14,5 C 78 % 1016,2 hPa 0,0 l/m 0 min 0 min 195 W/m 16,1 km/h (3 Bft) 100,00 %
22.06.2021 12:16 16,6 C 16,7 C 14,5 C 78 % 1016,3 hPa 0,0 l/m 0 min 0 min 232 W/m 22,5 km/h (4 Bft) 100,00 %
22.06.2021 12:18 16,6 C 16,7 C 14,5 C 78 % 1016,1 hPa 0,0 l/m 0 min 0 min 278 W/m 19,3 km/h (3 Bft) 100,00 %
22.06.2021 12:20 16,6 C 17,2 C 15,0 C 78 % 1016,1 hPa 0,0 l/m 0 min 0 min 402 W/m 16,1 km/h (3 Bft) 100,00 %
22.06.2021 12:22 16,7 C 17,8 C 15,6 C 79 % 1016,1 hPa 0,0 l/m 2 min 0 min 450 W/m 12,9 km/h (3 Bft) 100,00 %
22.06.2021 12:24 16,8 C 17,8 C 15,6 C 78 % 1016,1 hPa 0,0 l/m 0 min 0 min 332 W/m 16,1 km/h (3 Bft) 97,87 %
22.06.2021 12:26 16,8 C 17,2 C 15,0 C 78 % 1016,1 hPa 0,0 l/m 0 min 0 min 215 W/m 25,7 km/h (4 Bft) 100,00 %
22.06.2021 12:28 16,8 C 17,2 C 15,0 C 77 % 1016,1 hPa 0,0 l/m 0 min 0 min 170 W/m 3,2 km/h (1 Bft) 98,11 %
22.06.2021 12:30 16,8 C 17,2 C 14,5 C 77 % 1016,1 hPa 0,0 l/m 0 min 0 min 158 W/m 12,9 km/h (3 Bft) 100,00 %
22.06.2021 12:32 16,8 C 16,7 C 14,5 C 77 % 1016,1 hPa 0,0 l/m 0 min 0 min 169 W/m 19,3 km/h (3 Bft) 100,00 %
22.06.2021 12:34 16,8 C 16,7 C 14,5 C 77 % 1016,0 hPa 0,0 l/m 0 min 0 min 190 W/m 16,1 km/h (3 Bft) 100,00 %
22.06.2021 12:36 16,7 C 16,7 C 14,5 C 76 % 1016,1 hPa 0,0 l/m 0 min 0 min 246 W/m 9,7 km/h (2 Bft) 98,11 %
22.06.2021 12:38 16,8 C 17,2 C 15,0 C 78 % 1016,0 hPa 0,0 l/m 0 min 0 min 337 W/m 16,1 km/h (3 Bft) 100,00 %
22.06.2021 12:40 16,8 C 17,8 C 15,6 C 78 % 1016,0 hPa 0,0 l/m 0 min 0 min 375 W/m 16,1 km/h (3 Bft) 100,00 %
22.06.2021 12:42 16,9 C 18,3 C 15,6 C 78 % 1016,0 hPa 0,0 l/m 0 min 0 min 406 W/m 9,7 km/h (2 Bft) 97,87 %
22.06.2021 12:44 17,0 C 18,3 C 15,6 C 77 % 1016,0 hPa 0,0 l/m 0 min 0 min 447 W/m 25,7 km/h (4 Bft) 97,37 %
22.06.2021 12:46 17,1 C 18,3 C 15,6 C 77 % 1016,0 hPa 0,0 l/m 2 min 0 min 465 W/m 22,5 km/h (4 Bft) 96,00 %
22.06.2021 12:48 17,1 C 18,3 C 15,6 C 77 % 1016,0 hPa 0,0 l/m 0 min 0 min 430 W/m 16,1 km/h (3 Bft) 95,74 %
22.06.2021 12:50 17,2 C 18,3 C 15,6 C 76 % 1015,9 hPa 0,0 l/m 0 min 0 min 416 W/m 16,1 km/h (3 Bft) 96,15 %
22.06.2021 12:52 17,3 C 18,3 C 15,6 C 75 % 1015,9 hPa 0,0 l/m 0 min 0 min 426 W/m 19,3 km/h (3 Bft) 92,31 %
22.06.2021 12:54 17,3 C 18,3 C 15,6 C 75 % 1015,9 hPa 0,0 l/m 0 min 0 min 392 W/m 22,5 km/h (4 Bft) 95,92 %
22.06.2021 12:56 17,3 C 18,3 C 15,6 C 75 % 1015,9 hPa 0,0 l/m 0 min 0 min 366 W/m 22,5 km/h (4 Bft) 95,74 %
22.06.2021 12:58 17,3 C 18,3 C 15,6 C 75 % 1015,9 hPa 0,0 l/m 0 min 0 min 308 W/m 16,1 km/h (3 Bft) 94,34 %
22.06.2021 13:00 17,4 C 17,8 C 15,6 C 75 % 1015,9 hPa 0,0 l/m 0 min 0 min 279 W/m 12,9 km/h (3 Bft) 97,37 %
22.06.2021 13:02 17,4 C 18,3 C 15,6 C 76 % 1015,8 hPa 0,0 l/m 0 min 0 min 247 W/m 9,7 km/h (2 Bft) 91,84 %
22.06.2021 13:04 17,4 C 18,3 C 15,6 C 77 % 1015,8 hPa 0,0 l/m 0 min 0 min 266 W/m 9,7 km/h (2 Bft) 93,62 %
22.06.2021 13:06 17,4 C 18,3 C 15,6 C 77 % 1015,9 hPa 0,0 l/m 0 min 0 min 305 W/m 22,5 km/h (4 Bft) 94,34 %
22.06.2021 13:08 17,4 C 17,8 C 15,6 C 75 % 1016,0 hPa 0,0 l/m 0 min 0 min 328 W/m 16,1 km/h (3 Bft) 93,62 %
22.06.2021 13:10 17,4 C 18,3 C 15,6 C 75 % 1015,9 hPa 0,0 l/m 0 min 0 min 322 W/m 12,9 km/h (3 Bft) 93,62 %
22.06.2021 13:12 17,4 C 18,3 C 15,6 C 76 % 1016,1 hPa 0,0 l/m 0 min 0 min 320 W/m 25,7 km/h (4 Bft) 92,11 %
22.06.2021 13:14 17,4 C 18,3 C 15,6 C 75 % 1016,0 hPa 0,0 l/m 0 min 0 min 345 W/m 16,1 km/h (3 Bft) 91,84 %
22.06.2021 13:16 17,5 C 18,3 C 15,6 C 76 % 1016,0 hPa 0,0 l/m 0 min 0 min 323 W/m 9,7 km/h (2 Bft) 93,62 %
22.06.2021 13:18 17,5 C 18,3 C 15,6 C 77 % 1015,9 hPa 0,0 l/m 0 min 0 min 268 W/m 19,3 km/h (3 Bft) 91,49 %
22.06.2021 13:20 17,5 C 17,8 C 15,6 C 76 % 1016,0 hPa 0,0 l/m 0 min 0 min 199 W/m 12,9 km/h (3 Bft) 94,34 %
22.06.2021 13:22 17,5 C 17,8 C 15,0 C 76 % 1016,1 hPa 0,0 l/m 0 min 0 min 193 W/m 22,5 km/h (4 Bft) 92,11 %
22.06.2021 13:24 17,4 C 17,8 C 15,0 C 75 % 1016,0 hPa 0,0 l/m 0 min 0 min 192 W/m 16,1 km/h (3 Bft) 94,00 %
22.06.2021 13:26 17,4 C 17,8 C 15,0 C 75 % 1016,1 hPa 0,0 l/m 0 min 0 min 208 W/m 9,7 km/h (2 Bft) 93,48 %
22.06.2021 13:28 17,4 C 17,8 C 15,0 C 76 % 1016,0 hPa 0,0 l/m 0 min 0 min 216 W/m 12,9 km/h (3 Bft) 93,62 %
22.06.2021 13:30 17,3 C 17,8 C 15,0 C 77 % 1016,1 hPa 0,0 l/m 0 min 0 min 201 W/m 9,7 km/h (2 Bft) 93,62 %
22.06.2021 13:32 17,3 C 17,8 C 15,0 C 77 % 1016,1 hPa 0,0 l/m 0 min 0 min 195 W/m 6,4 km/h (2 Bft) 89,36 %
22.06.2021 13:34 17,3 C 17,8 C 15,0 C 77 % 1016,2 hPa 0,0 l/m 0 min 0 min 205 W/m 12,9 km/h (3 Bft) 91,49 %
22.06.2021 13:36 17,3 C 17,8 C 15,0 C 77 % 1016,1 hPa 0,0 l/m 0 min 0 min 208 W/m 12,9 km/h (3 Bft) 93,48 %
22.06.2021 13:38 17,3 C 17,8 C 15,0 C 77 % 1016,1 hPa 0,0 l/m 0 min 0 min 224 W/m 9,7 km/h (2 Bft) 95,74 %
22.06.2021 13:40 17,3 C 17,8 C 15,0 C 77 % 1016,1 hPa 0,0 l/m 0 min 0 min 251 W/m 22,5 km/h (4 Bft) 95,74 %
22.06.2021 13:42 17,3 C 17,8 C 15,0 C 76 % 1016,1 hPa 0,0 l/m 0 min 0 min 244 W/m 9,7 km/h (2 Bft) 95,74 %
22.06.2021 13:44 17,3 C 17,8 C 15,0 C 77 % 1016,1 hPa 0,0 l/m 0 min 0 min 235 W/m 12,9 km/h (3 Bft) 95,74 %
22.06.2021 13:46 17,3 C 17,8 C 15,0 C 76 % 1016,1 hPa 0,0 l/m 0 min 0 min 228 W/m 9,7 km/h (2 Bft) 97,87 %
22.06.2021 13:48 17,3 C 17,8 C 15,0 C 76 % 1016,2 hPa 0,0 l/m 0 min 0 min 199 W/m 12,9 km/h (3 Bft) 95,65 %
22.06.2021 13:50 17,4 C 17,8 C 15,0 C 77 % 1016,1 hPa 0,0 l/m 0 min 0 min 187 W/m 6,4 km/h (2 Bft) 100,00 %
22.06.2021 13:52 17,4 C 17,8 C 15,0 C 77 % 1016,1 hPa 0,0 l/m 0 min 0 min 176 W/m 9,7 km/h (2 Bft) 97,87 %
22.06.2021 13:54 17,3 C 17,8 C 15,0 C 76 % 1016,0 hPa 0,0 l/m 0 min 0 min 176 W/m 9,7 km/h (2 Bft) 100,00 %
22.06.2021 13:56 17,4 C 17,8 C 15,0 C 77 % 1016,0 hPa 0,0 l/m 0 min 0 min 192 W/m 6,4 km/h (2 Bft) 95,74 %
22.06.2021 13:58 17,4 C 17,8 C 15,0 C 77 % 1016,0 hPa 0,0 l/m 0 min 0 min 188 W/m 6,4 km/h (2 Bft) 100,00 %
22.06.2021 14:00 17,3 C 17,8 C 15,0 C 77 % 1015,9 hPa 0,0 l/m 0 min 0 min 180 W/m 9,7 km/h (2 Bft) 97,83 %
22.06.2021 14:02 17,4 C 17,8 C 15,0 C 77 % 1016,1 hPa 0,0 l/m 0 min 0 min 183 W/m 6,4 km/h (2 Bft) 100,00 %
22.06.2021 14:04 17,4 C 17,8 C 15,0 C 77 % 1016,1 hPa 0,0 l/m 0 min 0 min 181 W/m 9,7 km/h (2 Bft) 100,00 %
22.06.2021 14:06 17,4 C 17,8 C 15,0 C 77 % 1016,1 hPa 0,0 l/m 0 min 0 min 199 W/m 16,1 km/h (3 Bft) 97,87 %
22.06.2021 14:08 17,4 C 17,2 C 15,0 C 76 % 1016,1 hPa 0,0 l/m 0 min 0 min 203 W/m 12,9 km/h (3 Bft) 100,00 %
22.06.2021 14:10 17,3 C 17,2 C 15,0 C 76 % 1016,0 hPa 0,0 l/m 0 min 0 min 199 W/m 9,7 km/h (2 Bft) 100,00 %
22.06.2021 14:12 17,3 C 17,2 C 15,0 C 75 % 1016,0 hPa 0,0 l/m 0 min 0 min 189 W/m 12,9 km/h (3 Bft) 100,00 %
22.06.2021 14:14 17,3 C 17,2 C 15,0 C 76 % 1016,1 hPa 0,0 l/m 0 min 0 min 176 W/m 6,4 km/h (2 Bft) 100,00 %
22.06.2021 14:16 17,3 C 17,2 C 15,0 C 76 % 1016,1 hPa 0,0 l/m 0 min 0 min 154 W/m 9,7 km/h (2 Bft) 100,00 %
22.06.2021 14:18 17,3 C 17,2 C 15,0 C 77 % 1016,2 hPa 0,0 l/m 0 min 0 min 135 W/m 6,4 km/h (2 Bft) 100,00 %
22.06.2021 14:20 17,2 C 17,2 C 14,5 C 76 % 1016,1 hPa 0,0 l/m 0 min 0 min 130 W/m 16,1 km/h (3 Bft) 100,00 %
22.06.2021 14:22 17,2 C 17,2 C 14,5 C 76 % 1016,1 hPa 0,0 l/m 0 min 0 min 142 W/m 6,4 km/h (2 Bft) 100,00 %
22.06.2021 14:24 17,2 C 17,2 C 14,5 C 78 % 1016,2 hPa 0,0 l/m 0 min 0 min 146 W/m 9,7 km/h (2 Bft) 100,00 %
22.06.2021 14:26 17,2 C 17,2 C 14,5 C 78 % 1016,1 hPa 0,0 l/m 0 min 0 min 135 W/m 6,4 km/h (2 Bft) 100,00 %
22.06.2021 14:28 17,2 C 17,2 C 14,5 C 78 % 1016,1 hPa 0,0 l/m 0 min 0 min 137 W/m 6,4 km/h (2 Bft) 100,00 %
22.06.2021 14:30 17,2 C 17,2 C 14,5 C 78 % 1016,1 hPa 0,0 l/m 0 min 0 min 152 W/m 9,7 km/h (2 Bft) 100,00 %
22.06.2021 14:32 17,2 C 17,2 C 14,5 C 78 % 1016,1 hPa 0,0 l/m 0 min 0 min 175 W/m 9,7 km/h (2 Bft) 100,00 %
22.06.2021 14:34 17,2 C 17,2 C 15,0 C 78 % 1016,1 hPa 0,0 l/m 0 min 0 min 191 W/m 6,4 km/h (2 Bft) 100,00 %
22.06.2021 14:36 17,2 C 17,8 C 15,0 C 78 % 1016,0 hPa 0,0 l/m 0 min 0 min 195 W/m 9,7 km/h (2 Bft) 100,00 %
22.06.2021 14:38 17,2 C 17,2 C 15,0 C 78 % 1016,0 hPa 0,0 l/m 0 min 0 min 208 W/m 12,9 km/h (3 Bft) 100,00 %
22.06.2021 14:40 17,2 C 17,2 C 15,0 C 77 % 1016,1 hPa 0,0 l/m 0 min 0 min 192 W/m 6,4 km/h (2 Bft) 100,00 %
22.06.2021 14:42 17,3 C 17,8 C 15,0 C 77 % 1016,0 hPa 0,0 l/m 0 min 0 min 164 W/m 6,4 km/h (2 Bft) 100,00 %
22.06.2021 14:44 17,3 C 17,8 C 15,0 C 77 % 1016,0 hPa 0,0 l/m 0 min 0 min 140 W/m 9,7 km/h (2 Bft) 100,00 %
22.06.2021 14:46 17,3 C 17,2 C 15,0 C 77 % 1016,0 hPa 0,0 l/m 0 min 0 min 126 W/m 6,4 km/h (2 Bft) 100,00 %
22.06.2021 14:48 17,3 C 17,2 C 15,0 C 77 % 1016,0 hPa 0,0 l/m 0 min 0 min 127 W/m 6,4 km/h (2 Bft) 100,00 %
22.06.2021 14:50 17,3 C 17,2 C 15,0 C 78 % 1016,1 hPa 0,0 l/m 0 min 0 min 123 W/m 6,4 km/h (2 Bft) 100,00 %
22.06.2021 14:52 17,3 C 17,2 C 15,0 C 78 % 1016,0 hPa 0,0 l/m 0 min 0 min 114 W/m 9,7 km/h (2 Bft) 97,87 %
22.06.2021 14:54 17,2 C 17,2 C 14,5 C 76 % 1016,1 hPa 0,0 l/m 0 min 0 min 117 W/m 9,7 km/h (2 Bft) 100,00 %
22.06.2021 14:56 17,2 C 17,2 C 14,5 C 77 % 1016,1 hPa 0,0 l/m 0 min 0 min 128 W/m 9,7 km/h (2 Bft) 97,87 %
22.06.2021 14:58 17,2 C 17,2 C 15,0 C 77 % 1016,0 hPa 0,0 l/m 0 min 0 min 136 W/m 9,7 km/h (2 Bft) 100,00 %
22.06.2021 15:00 17,2 C 17,2 C 14,5 C 77 % 1016,1 hPa 0,0 l/m 0 min 0 min 134 W/m 6,4 km/h (2 Bft) 100,00 %
22.06.2021 15:02 17,2 C 17,2 C 14,5 C 77 % 1016,1 hPa 0,0 l/m 0 min 0 min 133 W/m 9,7 km/h (2 Bft) 95,74 %
22.06.2021 15:04 17,2 C 17,2 C 14,5 C 77 % 1016,1 hPa 0,0 l/m 0 min 0 min 126 W/m 19,3 km/h (3 Bft) 100,00 %
22.06.2021 15:06 17,2 C 17,2 C 15,0 C 78 % 1016,1 hPa 0,0 l/m 0 min 0 min 129 W/m 6,4 km/h (2 Bft) 100,00 %
22.06.2021 15:08 17,2 C 17,2 C 15,0 C 78 % 1016,2 hPa 0,0 l/m 0 min 0 min 131 W/m 9,7 km/h (2 Bft) 100,00 %
22.06.2021 15:10 17,2 C 17,2 C 14,5 C 78 % 1016,1 hPa 0,0 l/m 0 min 0 min 113 W/m 6,4 km/h (2 Bft) 100,00 %
22.06.2021 15:12 17,2 C 17,2 C 14,5 C 78 % 1016,2 hPa 0,0 l/m 0 min 0 min 96 W/m 6,4 km/h (2 Bft) 97,83 %
22.06.2021 15:14 17,1 C 16,7 C 14,5 C 77 % 1016,2 hPa 0,0 l/m 0 min 0 min 90 W/m 6,4 km/h (2 Bft) 100,00 %
22.06.2021 15:16 17,1 C 16,7 C 14,5 C 77 % 1016,2 hPa 0,0 l/m 0 min 0 min 92 W/m 9,7 km/h (2 Bft) 100,00 %
22.06.2021 15:18 17,1 C 16,7 C 14,5 C 78 % 1016,2 hPa 0,0 l/m 0 min 0 min 101 W/m 9,7 km/h (2 Bft) 100,00 %
22.06.2021 15:20 17,1 C 16,7 C 14,5 C 79 % 1016,2 hPa 0,0 l/m 0 min 0 min 114 W/m 9,7 km/h (2 Bft) 100,00 %
22.06.2021 15:22 17,1 C 16,7 C 14,5 C 79 % 1016,2 hPa 0,0 l/m 0 min 0 min 130 W/m 9,7 km/h (2 Bft) 100,00 %
22.06.2021 15:24 17,1 C 16,7 C 14,5 C 79 % 1016,3 hPa 0,0 l/m 0 min 0 min 144 W/m 6,4 km/h (2 Bft) 100,00 %
22.06.2021 15:26 17,1 C 17,2 C 14,5 C 79 % 1016,3 hPa 0,0 l/m 0 min 0 min 138 W/m 9,7 km/h (2 Bft) 100,00 %
22.06.2021 15:28 17,1 C 17,2 C 14,5 C 79 % 1016,2 hPa 0,0 l/m 0 min 0 min 124 W/m 6,4 km/h (2 Bft) 100,00 %
22.06.2021 15:30 17,1 C 17,2 C 14,5 C 80 % 1016,3 hPa 0,0 l/m 0 min 2 min 113 W/m 12,9 km/h (3 Bft) 100,00 %
22.06.2021 15:32 17,1 C 16,7 C 14,5 C 80 % 1016,3 hPa 0,0 l/m 0 min 2 min 103 W/m 9,7 km/h (2 Bft) 97,87 %
22.06.2021 15:34 17,1 C 16,7 C 13,9 C 80 % 1016,2 hPa 0,0 l/m 0 min 2 min 95 W/m 9,7 km/h (2 Bft) 100,00 %
22.06.2021 15:36 17,1 C 16,7 C 13,4 C 81 % 1016,3 hPa 0,0 l/m 0 min 2 min 94 W/m 6,4 km/h (2 Bft) 97,83 %
22.06.2021 15:38 17,1 C 16,7 C 13,4 C 82 % 1016,2 hPa 0,0 l/m 0 min 2 min 98 W/m 6,4 km/h (2 Bft) 100,00 %
22.06.2021 15:40 17,1 C 16,7 C 13,4 C 83 % 1016,3 hPa 0,0 l/m 0 min 2 min 101 W/m 6,4 km/h (2 Bft) 100,00 %
22.06.2021 15:42 17,0 C 16,7 C 13,4 C 83 % 1016,2 hPa 0,0 l/m 0 min 2 min 103 W/m 3,2 km/h (1 Bft) 97,87 %
22.06.2021 15:44 17,0 C 16,1 C 13,4 C 84 % 1016,3 hPa 0,2 l/m 0 min 2 min 105 W/m 3,2 km/h (1 Bft) 97,83 %
22.06.2021 15:46 17,0 C 16,1 C 13,4 C 85 % 1016,3 hPa 0,0 l/m 0 min 2 min 101 W/m 3,2 km/h (1 Bft) 95,74 %
22.06.2021 15:48 16,9 C 16,1 C 13,4 C 85 % 1016,3 hPa 0,0 l/m 0 min 2 min 99 W/m 6,4 km/h (2 Bft) 95,74 %
22.06.2021 15:50 16,9 C 16,1 C 12,8 C 85 % 1016,3 hPa 0,0 l/m 0 min 2 min 97 W/m 3,2 km/h (1 Bft) 93,62 %
22.06.2021 15:52 16,8 C 16,1 C 13,4 C 86 % 1016,3 hPa 0,0 l/m 0 min 2 min 93 W/m 3,2 km/h (1 Bft) 95,74 %
22.06.2021 15:54 16,8 C 16,1 C 13,4 C 86 % 1016,3 hPa 0,0 l/m 0 min 2 min 90 W/m 3,2 km/h (1 Bft) 95,74 %
22.06.2021 15:56 16,8 C 16,1 C 13,4 C 87 % 1016,4 hPa 0,0 l/m 0 min 2 min 95 W/m 3,2 km/h (1 Bft) 95,65 %
22.06.2021 15:58 16,7 C 16,1 C 12,8 C 87 % 1016,3 hPa 0,2 l/m 0 min 2 min 97 W/m 6,4 km/h (2 Bft) 93,62 %
22.06.2021 16:00 16,6 C 15,6 C 12,8 C 87 % 1016,3 hPa 0,0 l/m 0 min 2 min 102 W/m 6,4 km/h (2 Bft) 95,74 %
22.06.2021 16:02 16,6 C 15,0 C 12,8 C 87 % 1016,4 hPa 0,0 l/m 0 min 2 min 98 W/m 6,4 km/h (2 Bft) 93,62 %
22.06.2021 16:04 16,5 C 15,0 C 12,8 C 87 % 1016,4 hPa 0,0 l/m 0 min 2 min 84 W/m 6,4 km/h (2 Bft) 95,74 %
22.06.2021 16:06 16,5 C 14,4 C 12,8 C 87 % 1016,3 hPa 0,0 l/m 0 min 2 min 72 W/m 3,2 km/h (1 Bft) 95,74 %
22.06.2021 16:08 16,5 C 14,4 C 12,8 C 87 % 1016,3 hPa 0,2 l/m 0 min 2 min 66 W/m 3,2 km/h (1 Bft) 93,48 %
22.06.2021 16:10 16,4 C 14,4 C 12,3 C 88 % 1016,3 hPa 0,0 l/m 0 min 2 min 67 W/m 3,2 km/h (1 Bft) 95,74 %
22.06.2021 16:12 16,4 C 15,0 C 12,3 C 88 % 1016,4 hPa 0,0 l/m 0 min 2 min 68 W/m 3,2 km/h (1 Bft) 93,62 %
22.06.2021 16:14 16,4 C 15,0 C 12,3 C 88 % 1016,3 hPa 0,0 l/m 0 min 2 min 63 W/m 3,2 km/h (1 Bft) 95,74 %
22.06.2021 16:16 16,3 C 15,0 C 12,3 C 88 % 1016,4 hPa 0,2 l/m 0 min 2 min 58 W/m 3,2 km/h (1 Bft) 95,74 %
22.06.2021 16:18 16,3 C 15,0 C 12,8 C 89 % 1016,4 hPa 0,0 l/m 0 min 2 min 57 W/m 3,2 km/h (1 Bft) 91,49 %
22.06.2021 16:20 16,3 C 14,4 C 12,8 C 89 % 1016,4 hPa 0,0 l/m 0 min 2 min 53 W/m 3,2 km/h (1 Bft) 95,65 %
22.06.2021 16:22 16,3 C 14,4 C 12,3 C 89 % 1016,5 hPa 0,2 l/m 0 min 2 min 49 W/m 3,2 km/h (1 Bft) 95,74 %
22.06.2021 16:24 16,3 C 14,4 C 12,3 C 89 % 1016,5 hPa 0,0 l/m 0 min 2 min 49 W/m 3,2 km/h (1 Bft) 95,74 %
22.06.2021 16:26 16,3 C 14,4 C 12,3 C 89 % 1016,5 hPa 0,2 l/m 0 min 2 min 48 W/m 3,2 km/h (1 Bft) 93,62 %
22.06.2021 16:28 16,2 C 14,4 C 12,8 C 90 % 1016,6 hPa 0,0 l/m 0 min 2 min 49 W/m 3,2 km/h (1 Bft) 97,87 %
22.06.2021 16:30 16,2 C 14,4 C 12,3 C 90 % 1016,6 hPa 0,2 l/m 0 min 2 min 51 W/m 0,0 km/h (0 Bft) 97,87 %
22.06.2021 16:32 16,1 C 14,4 C 12,3 C 90 % 1016,6 hPa 0,2 l/m 0 min 2 min 53 W/m 3,2 km/h (1 Bft) 95,65 %
22.06.2021 16:34 16,1 C 14,4 C 12,3 C 90 % 1016,7 hPa 0,0 l/m 0 min 2 min 56 W/m 3,2 km/h (1 Bft) 97,87 %
22.06.2021 16:36 16,1 C 14,4 C 12,3 C 90 % 1016,6 hPa 0,2 l/m 0 min 2 min 61 W/m 3,2 km/h (1 Bft) 95,74 %
22.06.2021 16:38 16,1 C 14,4 C 12,3 C 90 % 1016,7 hPa 0,0 l/m 0 min 2 min 67 W/m 3,2 km/h (1 Bft) 95,74 %
22.06.2021 16:40 16,1 C 14,4 C 12,3 C 91 % 1016,6 hPa 0,2 l/m 0 min 2 min 75 W/m 3,2 km/h (1 Bft) 94,44 %
22.06.2021 16:42 16,1 C 14,4 C 12,8 C 91 % 1016,6 hPa 0,0 l/m 0 min 2 min 78 W/m 3,2 km/h (1 Bft) 97,87 %
22.06.2021 16:44 16,0 C 14,4 C 12,3 C 91 % 1016,7 hPa 0,0 l/m 0 min 2 min 80 W/m 3,2 km/h (1 Bft) 97,83 %
22.06.2021 16:46 16,0 C 14,4 C 12,3 C 91 % 1016,7 hPa 0,2 l/m 0 min 2 min 81 W/m 3,2 km/h (1 Bft) 97,87 %
22.06.2021 16:48 16,0 C 14,4 C 12,3 C 91 % 1016,7 hPa 0,0 l/m 0 min 2 min 84 W/m 3,2 km/h (1 Bft) 97,87 %
22.06.2021 16:50 16,0 C 14,4 C 12,3 C 91 % 1016,8 hPa 0,0 l/m 0 min 2 min 86 W/m 3,2 km/h (1 Bft) 100,00 %
22.06.2021 16:52 16,0 C 14,4 C 12,3 C 92 % 1016,7 hPa 0,2 l/m 0 min 2 min 91 W/m 0,0 km/h (0 Bft) 97,87 %
22.06.2021 16:54 16,0 C 14,4 C 12,8 C 92 % 1016,7 hPa 0,0 l/m 0 min 2 min 92 W/m 3,2 km/h (1 Bft) 95,65 %
22.06.2021 16:56 15,9 C 14,4 C 12,8 C 92 % 1016,7 hPa 0,0 l/m 0 min 2 min 87 W/m 3,2 km/h (1 Bft) 97,87 %
22.06.2021 16:58 15,9 C 14,4 C 12,8 C 92 % 1016,7 hPa 0,0 l/m 0 min 2 min 97 W/m 3,2 km/h (1 Bft) 97,87 %
22.06.2021 17:00 15,9 C 14,4 C 12,8 C 92 % 1016,7 hPa 0,0 l/m 0 min 2 min 103 W/m 3,2 km/h (1 Bft) 95,74 %
22.06.2021 17:02 15,9 C 14,4 C 12,8 C 92 % 1016,7 hPa 0,2 l/m 0 min 2 min 100 W/m 3,2 km/h (1 Bft) 95,74 %
22.06.2021 17:04 15,9 C 14,4 C 12,3 C 92 % 1016,7 hPa 0,0 l/m 0 min 2 min 97 W/m 6,4 km/h (2 Bft) 95,74 %
22.06.2021 17:06 15,8 C 13,9 C 12,3 C 92 % 1016,7 hPa 0,0 l/m 0 min 2 min 93 W/m 3,2 km/h (1 Bft) 97,83 %
22.06.2021 17:08 15,8 C 13,9 C 12,3 C 93 % 1016,7 hPa 0,0 l/m 0 min 2 min 87 W/m 3,2 km/h (1 Bft) 97,87 %
22.06.2021 17:10 15,8 C 14,4 C 12,3 C 93 % 1016,7 hPa 0,0 l/m 0 min 2 min 81 W/m 6,4 km/h (2 Bft) 95,74 %
22.06.2021 17:12 15,7 C 13,9 C 12,3 C 93 % 1016,7 hPa 0,0 l/m 0 min 0 min 82 W/m 9,7 km/h (2 Bft) 97,87 %
22.06.2021 17:14 15,6 C 14,4 C 12,3 C 93 % 1016,7 hPa 0,0 l/m 0 min 2 min 82 W/m 6,4 km/h (2 Bft) 100,00 %
22.06.2021 17:16 15,6 C 14,4 C 12,3 C 93 % 1016,7 hPa 0,0 l/m 0 min 2 min 80 W/m 6,4 km/h (2 Bft) 95,74 %
22.06.2021 17:18 15,5 C 14,4 C 12,3 C 93 % 1016,8 hPa 0,0 l/m 0 min 2 min 78 W/m 3,2 km/h (1 Bft) 97,83 %
22.06.2021 17:20 15,5 C 14,4 C 12,3 C 93 % 1016,8 hPa 0,0 l/m 0 min 2 min 76 W/m 3,2 km/h (1 Bft) 97,87 %
22.06.2021 17:22 15,5 C 14,4 C 12,3 C 93 % 1016,7 hPa 0,0 l/m 0 min 2 min 75 W/m 6,4 km/h (2 Bft) 97,87 %
22.06.2021 17:24 15,5 C 14,4 C 12,3 C 93 % 1016,7 hPa 0,2 l/m 0 min 2 min 72 W/m 3,2 km/h (1 Bft) 97,87 %
22.06.2021 17:26 15,5 C 14,4 C 12,3 C 93 % 1016,7 hPa 0,0 l/m 0 min 2 min 70 W/m 3,2 km/h (1 Bft) 95,74 %
22.06.2021 17:28 15,5 C 14,4 C 12,3 C 93 % 1016,7 hPa 0,0 l/m 0 min 2 min 70 W/m 0,0 km/h (0 Bft) 95,74 %
22.06.2021 17:30 15,5 C 14,4 C 12,3 C 93 % 1016,8 hPa 0,0 l/m 0 min 2 min 68 W/m 3,2 km/h (1 Bft) 97,83 %
22.06.2021 17:32 15,5 C 14,4 C 12,3 C 94 % 1016,8 hPa 0,0 l/m 0 min 2 min 74 W/m 3,2 km/h (1 Bft) 97,87 %
22.06.2021 17:34 15,5 C 14,4 C 12,8 C 94 % 1016,8 hPa 0,0 l/m 0 min 2 min 91 W/m 3,2 km/h (1 Bft) 97,87 %
22.06.2021 17:36 15,5 C 14,4 C 12,8 C 94 % 1016,7 hPa 0,2 l/m 0 min 2 min 111 W/m 9,7 km/h (2 Bft) 97,87 %
22.06.2021 17:38 15,5 C 14,4 C 12,8 C 94 % 1016,7 hPa 0,0 l/m 0 min 2 min 127 W/m 6,4 km/h (2 Bft) 97,87 %
22.06.2021 17:40 15,5 C 14,4 C 12,8 C 94 % 1016,7 hPa 0,0 l/m 0 min 2 min 138 W/m 6,4 km/h (2 Bft) 97,87 %
22.06.2021 17:42 15,5 C 14,4 C 12,8 C 94 % 1016,7 hPa 0,2 l/m 0 min 2 min 148 W/m 9,7 km/h (2 Bft) 97,83 %
22.06.2021 17:44 15,5 C 14,4 C 12,8 C 94 % 1016,7 hPa 0,0 l/m 0 min 2 min 151 W/m 3,2 km/h (1 Bft) 97,87 %
22.06.2021 17:46 15,5 C 14,4 C 12,8 C 94 % 1016,7 hPa 0,0 l/m 0 min 2 min 147 W/m 6,4 km/h (2 Bft) 97,87 %
22.06.2021 17:48 15,6 C 15,0 C 12,8 C 94 % 1016,7 hPa 0,2 l/m 0 min 2 min 136 W/m 6,4 km/h (2 Bft) 97,87 %
22.06.2021 17:50 15,6 C 15,0 C 12,8 C 95 % 1016,7 hPa 0,0 l/m 0 min 2 min 128 W/m 6,4 km/h (2 Bft) 97,87 %
22.06.2021 17:52 15,6 C 15,0 C 13,4 C 95 % 1016,8 hPa 0,0 l/m 0 min 2 min 122 W/m 3,2 km/h (1 Bft) 97,87 %
22.06.2021 17:54 15,6 C 15,0 C 13,4 C 95 % 1016,7 hPa 0,0 l/m 0 min 0 min 120 W/m 9,7 km/h (2 Bft) 97,83 %
22.06.2021 17:56 15,6 C 14,4 C 12,8 C 95 % 1016,7 hPa 0,0 l/m 0 min 0 min 113 W/m 6,4 km/h (2 Bft) 97,87 %
22.06.2021 17:58 15,6 C 15,0 C 12,8 C 95 % 1016,7 hPa 0,0 l/m 0 min 0 min 104 W/m 6,4 km/h (2 Bft) 95,74 %
22.06.2021 18:00 15,6 C 15,0 C 12,8 C 95 % 1016,7 hPa 0,0 l/m 0 min 0 min 93 W/m 6,4 km/h (2 Bft) 97,87 %
22.06.2021 18:02 15,6 C 15,0 C 12,8 C 95 % 1016,8 hPa 0,0 l/m 0 min 2 min 80 W/m 6,4 km/h (2 Bft) 100,00 %
22.06.2021 18:04 15,6 C 15,0 C 12,8 C 95 % 1016,8 hPa 0,0 l/m 0 min 0 min 67 W/m 6,4 km/h (2 Bft) 100,00 %
22.06.2021 18:08 15,6 C 14,4 C 12,8 C 95 % 1016,8 hPa 0,0 l/m 0 min 4 min 55 W/m 9,7 km/h (2 Bft) 97,59 %
22.06.2021 18:10 15,5 C 14,4 C 12,8 C 95 % 1016,7 hPa 0,0 l/m 0 min 2 min 46 W/m 3,2 km/h (1 Bft) 100,00 %
22.06.2021 18:12 15,5 C 14,4 C 12,8 C 95 % 1016,7 hPa 0,2 l/m 0 min 2 min 42 W/m 6,4 km/h (2 Bft) 98,31 %
22.06.2021 18:14 15,5 C 14,4 C 12,8 C 95 % 1016,7 hPa 0,0 l/m 0 min 2 min 39 W/m 3,2 km/h (1 Bft) 97,14 %
22.06.2021 18:16 15,5 C 14,4 C 12,8 C 95 % 1016,8 hPa 0,0 l/m 0 min 2 min 36 W/m 3,2 km/h (1 Bft) 97,87 %
22.06.2021 18:18 15,5 C 14,4 C 12,8 C 95 % 1016,8 hPa 0,2 l/m 0 min 2 min 32 W/m 6,4 km/h (2 Bft) 95,74 %
22.06.2021 18:20 15,5 C 14,4 C 12,8 C 95 % 1016,8 hPa 0,0 l/m 0 min 2 min 30 W/m 6,4 km/h (2 Bft) 97,83 %
22.06.2021 18:22 15,5 C 14,4 C 12,8 C 95 % 1016,8 hPa 0,2 l/m 0 min 2 min 28 W/m 3,2 km/h (1 Bft) 98,31 %
22.06.2021 18:24 15,5 C 14,4 C 12,8 C 95 % 1016,9 hPa 0,0 l/m 0 min 2 min 26 W/m 3,2 km/h (1 Bft) 97,87 %
22.06.2021 18:26 15,5 C 14,4 C 12,8 C 95 % 1016,8 hPa 0,0 l/m 0 min 2 min 25 W/m 3,2 km/h (1 Bft) 97,14 %
22.06.2021 18:28 15,5 C 13,9 C 12,8 C 95 % 1016,8 hPa 0,0 l/m 0 min 2 min 23 W/m 3,2 km/h (1 Bft) 95,74 %
22.06.2021 18:30 15,5 C 13,9 C 12,8 C 95 % 1016,8 hPa 0,2 l/m 0 min 2 min 22 W/m 6,4 km/h (2 Bft) 97,87 %
22.06.2021 18:32 15,4 C 13,9 C 12,8 C 95 % 1016,8 hPa 0,2 l/m 0 min 2 min 21 W/m 6,4 km/h (2 Bft) 97,83 %
22.06.2021 18:34 15,4 C 13,9 C 12,8 C 95 % 1016,9 hPa 0,0 l/m 0 min 2 min 21 W/m 6,4 km/h (2 Bft) 96,61 %
22.06.2021 18:36 15,4 C 13,9 C 12,8 C 95 % 1016,9 hPa 0,0 l/m 0 min 2 min 21 W/m 6,4 km/h (2 Bft) 97,87 %
22.06.2021 18:38 15,4 C 13,9 C 12,8 C 95 % 1016,9 hPa 0,2 l/m 0 min 2 min 21 W/m 3,2 km/h (1 Bft) 97,87 %
22.06.2021 18:40 15,4 C 13,9 C 12,8 C 95 % 1016,9 hPa 0,0 l/m 0 min 2 min 23 W/m 3,2 km/h (1 Bft) 97,83 %
22.06.2021 18:42 15,3 C 13,9 C 12,8 C 95 % 1017,0 hPa 0,2 l/m 0 min 2 min 25 W/m 0,0 km/h (0 Bft) 97,14 %
22.06.2021 18:44 15,3 C 13,9 C 12,8 C 95 % 1017,0 hPa 0,0 l/m 0 min 2 min 26 W/m 0,0 km/h (0 Bft) 97,87 %
22.06.2021 18:46 15,3 C 13,9 C 12,8 C 96 % 1017,0 hPa 0,2 l/m 0 min 2 min 28 W/m 0,0 km/h (0 Bft) 97,22 %
22.06.2021 18:48 15,3 C 13,9 C 12,8 C 96 % 1017,0 hPa 0,0 l/m 0 min 2 min 31 W/m 0,0 km/h (0 Bft) 96,77 %
22.06.2021 18:50 15,4 C 13,9 C 12,3 C 96 % 1017,1 hPa 0,2 l/m 0 min 2 min 32 W/m 3,2 km/h (1 Bft) 95,45 %
22.06.2021 18:52 15,4 C 13,9 C 12,3 C 96 % 1017,1 hPa 0,0 l/m 0 min 2 min 32 W/m 0,0 km/h (0 Bft) 95,92 %
22.06.2021 18:54 15,3 C 13,9 C 12,3 C 96 % 1017,1 hPa 0,0 l/m 0 min 2 min 34 W/m 0,0 km/h (0 Bft) 95,74 %
22.06.2021 18:56 15,3 C 13,9 C 12,3 C 96 % 1017,1 hPa 0,0 l/m 0 min 2 min 36 W/m 0,0 km/h (0 Bft) 95,74 %
22.06.2021 18:58 15,3 C 13,9 C 12,3 C 96 % 1017,1 hPa 0,2 l/m 0 min 2 min 38 W/m 3,2 km/h (1 Bft) 95,74 %
22.06.2021 19:00 15,3 C 13,9 C 12,8 C 96 % 1017,1 hPa 0,0 l/m 0 min 2 min 39 W/m 0,0 km/h (0 Bft) 97,87 %
22.06.2021 19:02 15,3 C 13,9 C 12,8 C 96 % 1017,1 hPa 0,0 l/m 0 min 2 min 42 W/m 3,2 km/h (1 Bft) 95,45 %
22.06.2021 19:04 15,3 C 13,9 C 12,8 C 96 % 1017,2 hPa 0,0 l/m 0 min 2 min 46 W/m 3,2 km/h (1 Bft) 95,74 %
22.06.2021 19:06 15,3 C 13,9 C 12,8 C 96 % 1017,2 hPa 0,0 l/m 0 min 0 min 51 W/m 0,0 km/h (0 Bft) 97,96 %
22.06.2021 19:08 15,3 C 13,9 C 12,8 C 96 % 1017,2 hPa 0,0 l/m 0 min 0 min 53 W/m 0,0 km/h (0 Bft) 97,87 %
22.06.2021 19:10 15,3 C 13,9 C 12,8 C 96 % 1017,3 hPa 0,0 l/m 0 min 0 min 53 W/m 3,2 km/h (1 Bft) 97,87 %
22.06.2021 19:12 15,3 C 13,9 C 12,8 C 96 % 1017,3 hPa 0,0 l/m 0 min 0 min 50 W/m 6,4 km/h (2 Bft) 95,74 %
22.06.2021 19:14 15,2 C 13,9 C 12,8 C 96 % 1017,3 hPa 0,0 l/m 0 min 0 min 45 W/m 3,2 km/h (1 Bft) 95,74 %
22.06.2021 19:16 15,1 C 13,9 C 12,8 C 96 % 1017,4 hPa 0,0 l/m 0 min 2 min 39 W/m 3,2 km/h (1 Bft) 97,73 %
22.06.2021 19:18 15,1 C 13,9 C 12,8 C 96 % 1017,3 hPa 0,0 l/m 0 min 2 min 36 W/m 0,0 km/h (0 Bft) 95,92 %
22.06.2021 19:20 15,2 C 13,9 C 12,8 C 96 % 1017,4 hPa 0,0 l/m 0 min 2 min 33 W/m 3,2 km/h (1 Bft) 97,87 %
22.06.2021 19:22 15,3 C 13,9 C 12,8 C 96 % 1017,4 hPa 0,0 l/m 0 min 2 min 27 W/m 0,0 km/h (0 Bft) 97,73 %
22.06.2021 19:24 15,3 C 13,9 C 12,8 C 96 % 1017,4 hPa 0,0 l/m 0 min 2 min 24 W/m 0,0 km/h (0 Bft) 97,87 %
22.06.2021 19:26 15,3 C 14,4 C 12,8 C 96 % 1017,5 hPa 0,2 l/m 0 min 2 min 21 W/m 3,2 km/h (1 Bft) 98,00 %
22.06.2021 19:28 15,3 C 13,9 C 12,8 C 96 % 1017,5 hPa 0,0 l/m 0 min 2 min 20 W/m 3,2 km/h (1 Bft) 97,83 %
22.06.2021 19:30 15,3 C 13,9 C 12,8 C 96 % 1017,5 hPa 0,0 l/m 0 min 2 min 18 W/m 3,2 km/h (1 Bft) 97,87 %
22.06.2021 19:32 15,3 C 13,9 C 12,8 C 96 % 1017,6 hPa 0,0 l/m 0 min 2 min 16 W/m 0,0 km/h (0 Bft) 95,45 %
22.06.2021 19:34 15,3 C 13,9 C 12,8 C 96 % 1017,6 hPa 0,0 l/m 0 min 0 min 14 W/m 0,0 km/h (0 Bft) 98,00 %
22.06.2021 19:36 15,3 C 13,9 C 12,8 C 96 % 1017,7 hPa 0,0 l/m 0 min 2 min 14 W/m 3,2 km/h (1 Bft) 95,74 %
22.06.2021 19:38 15,3 C 13,9 C 12,8 C 97 % 1017,8 hPa 0,0 l/m 0 min 2 min 14 W/m 3,2 km/h (1 Bft) 97,87 %
22.06.2021 19:40 15,3 C 13,9 C 12,8 C 96 % 1017,8 hPa 0,0 l/m 0 min 2 min 16 W/m 3,2 km/h (1 Bft) 100,00 %
22.06.2021 19:42 15,2 C 13,9 C 12,8 C 96 % 1017,8 hPa 0,0 l/m 0 min 2 min 17 W/m 3,2 km/h (1 Bft) 100,00 %
22.06.2021 19:44 15,1 C 13,9 C 12,8 C 96 % 1017,9 hPa 0,0 l/m 0 min 2 min 18 W/m 3,2 km/h (1 Bft) 100,00 %
22.06.2021 19:46 15,1 C 13,9 C 12,8 C 96 % 1017,9 hPa 0,2 l/m 0 min 2 min 17 W/m 3,2 km/h (1 Bft) 100,00 %
22.06.2021 19:48 15,1 C 13,9 C 12,8 C 96 % 1017,9 hPa 0,0 l/m 0 min 2 min 16 W/m 3,2 km/h (1 Bft) 95,74 %
22.06.2021 19:50 15,1 C 13,9 C 12,8 C 96 % 1017,9 hPa 0,2 l/m 0 min 2 min 17 W/m 3,2 km/h (1 Bft) 100,00 %
22.06.2021 19:52 15,1 C 13,9 C 12,8 C 96 % 1017,8 hPa 0,0 l/m 0 min 2 min 20 W/m 3,2 km/h (1 Bft) 100,00 %
22.06.2021 19:54 15,1 C 13,9 C 12,8 C 96 % 1017,6 hPa 0,2 l/m 0 min 2 min 23 W/m 6,4 km/h (2 Bft) 100,00 %
22.06.2021 19:56 15,1 C 13,9 C 12,8 C 97 % 1017,5 hPa 0,2 l/m 0 min 2 min 23 W/m 9,7 km/h (2 Bft) 97,73 %
22.06.2021 19:58 15,0 C 13,9 C 12,8 C 97 % 1017,4 hPa 0,0 l/m 0 min 2 min 24 W/m 12,9 km/h (3 Bft) 100,00 %
22.06.2021 20:00 15,0 C 13,9 C 12,8 C 97 % 1017,3 hPa 0,0 l/m 0 min 2 min 27 W/m 6,4 km/h (2 Bft) 98,00 %
22.06.2021 20:02 14,9 C 13,3 C 12,3 C 96 % 1017,3 hPa 0,2 l/m 0 min 2 min 31 W/m 9,7 km/h (2 Bft) 100,00 %
22.06.2021 20:04 14,9 C 13,3 C 12,8 C 96 % 1017,3 hPa 0,2 l/m 0 min 2 min 33 W/m 12,9 km/h (3 Bft) 100,00 %
22.06.2021 20:06 14,8 C 13,3 C 12,3 C 96 % 1017,3 hPa 0,4 l/m 0 min 2 min 33 W/m 6,4 km/h (2 Bft) 100,00 %
22.06.2021 20:08 14,8 C 13,3 C 12,3 C 96 % 1017,3 hPa 0,0 l/m 0 min 2 min 33 W/m 6,4 km/h (2 Bft) 97,87 %
22.06.2021 20:10 14,7 C 13,3 C 12,3 C 97 % 1017,4 hPa 0,0 l/m 0 min 2 min 30 W/m 3,2 km/h (1 Bft) 100,00 %
22.06.2021 20:12 14,7 C 13,9 C 12,8 C 97 % 1017,4 hPa 0,2 l/m 0 min 2 min 30 W/m 3,2 km/h (1 Bft) 100,00 %
22.06.2021 20:14 14,6 C 13,9 C 12,3 C 97 % 1017,4 hPa 0,0 l/m 0 min 2 min 30 W/m 3,2 km/h (1 Bft) 100,00 %
22.06.2021 20:16 14,7 C 13,3 C 12,8 C 97 % 1017,4 hPa 0,2 l/m 0 min 2 min 32 W/m 6,4 km/h (2 Bft) 100,00 %
22.06.2021 20:18 14,6 C 13,3 C 12,8 C 97 % 1017,4 hPa 0,0 l/m 0 min 2 min 32 W/m 6,4 km/h (2 Bft) 100,00 %
22.06.2021 20:20 14,6 C 13,3 C 12,8 C 97 % 1017,4 hPa 0,0 l/m 0 min 2 min 32 W/m 6,4 km/h (2 Bft) 100,00 %
22.06.2021 20:22 14,6 C 13,3 C 12,8 C 97 % 1017,4 hPa 0,0 l/m 0 min 0 min 32 W/m 3,2 km/h (1 Bft) 98,00 %
22.06.2021 20:24 14,6 C 13,3 C 12,8 C 97 % 1017,4 hPa 0,0 l/m 0 min 2 min 32 W/m 6,4 km/h (2 Bft) 97,87 %
22.06.2021 20:26 14,6 C 13,3 C 12,8 C 97 % 1017,4 hPa 0,0 l/m 0 min 2 min 30 W/m 6,4 km/h (2 Bft) 100,00 %
22.06.2021 20:28 14,6 C 13,3 C 12,8 C 97 % 1017,4 hPa 0,0 l/m 0 min 2 min 29 W/m 6,4 km/h (2 Bft) 100,00 %
22.06.2021 20:30 14,5 C 13,3 C 12,8 C 97 % 1017,3 hPa 0,0 l/m 0 min 0 min 27 W/m 9,7 km/h (2 Bft) 97,87 %
22.06.2021 20:32 14,5 C 13,3 C 12,3 C 97 % 1017,3 hPa 0,0 l/m 0 min 0 min 26 W/m 6,4 km/h (2 Bft) 100,00 %
22.06.2021 20:34 14,5 C 13,3 C 12,8 C 97 % 1017,4 hPa 0,0 l/m 0 min 0 min 25 W/m 6,4 km/h (2 Bft) 100,00 %
22.06.2021 20:36 14,5 C 13,3 C 12,8 C 97 % 1017,3 hPa 0,0 l/m 0 min 0 min 23 W/m 9,7 km/h (2 Bft) 97,87 %
22.06.2021 20:38 14,5 C 13,3 C 12,8 C 97 % 1017,4 hPa 0,0 l/m 0 min 0 min 20 W/m 3,2 km/h (1 Bft) 100,00 %
22.06.2021 20:40 14,5 C 13,3 C 12,8 C 97 % 1017,4 hPa 0,0 l/m 0 min 0 min 19 W/m 6,4 km/h (2 Bft) 97,87 %
22.06.2021 20:42 14,5 C 13,3 C 12,8 C 97 % 1017,4 hPa 0,0 l/m 0 min 2 min 16 W/m 12,9 km/h (3 Bft) 100,00 %
22.06.2021 20:44 14,5 C 13,3 C 12,8 C 97 % 1017,4 hPa 0,0 l/m 0 min 2 min 13 W/m 6,4 km/h (2 Bft) 100,00 %
22.06.2021 20:46 14,5 C 13,3 C 12,8 C 97 % 1017,5 hPa 0,2 l/m 0 min 2 min 12 W/m 6,4 km/h (2 Bft) 96,23 %
22.06.2021 20:48 14,5 C 13,3 C 12,8 C 97 % 1017,5 hPa 0,0 l/m 0 min 2 min 10 W/m 9,7 km/h (2 Bft) 100,00 %
22.06.2021 20:50 14,5 C 13,3 C 12,8 C 97 % 1017,6 hPa 0,0 l/m 0 min 0 min 8 W/m 3,2 km/h (1 Bft) 100,00 %
22.06.2021 20:52 14,5 C 13,3 C 12,3 C 97 % 1017,6 hPa 0,0 l/m 0 min 2 min 7 W/m 9,7 km/h (2 Bft) 100,00 %
22.06.2021 20:54 14,5 C 13,3 C 12,3 C 97 % 1017,6 hPa 0,0 l/m 0 min 2 min 5 W/m 3,2 km/h (1 Bft) 95,45 %
22.06.2021 20:56 14,5 C 13,3 C 12,8 C 97 % 1017,6 hPa 0,0 l/m 0 min 2 min 5 W/m 6,4 km/h (2 Bft) 98,00 %
22.06.2021 20:58 14,5 C 13,3 C 12,8 C 97 % 1017,6 hPa 0,0 l/m 0 min 2 min 5 W/m 6,4 km/h (2 Bft) 98,00 %
22.06.2021 21:00 14,4 C 13,3 C 12,8 C 97 % 1017,6 hPa 0,0 l/m 0 min 2 min 5 W/m 3,2 km/h (1 Bft) 97,14 %
22.06.2021 21:02 14,4 C 13,3 C 12,3 C 97 % 1017,7 hPa 0,0 l/m 0 min 2 min 5 W/m 6,4 km/h (2 Bft) 98,18 %
22.06.2021 21:04 14,4 C 13,3 C 12,3 C 97 % 1017,7 hPa 0,0 l/m 0 min 2 min 5 W/m 9,7 km/h (2 Bft) 98,00 %
22.06.2021 21:06 14,4 C 13,3 C 12,8 C 97 % 1017,7 hPa 0,0 l/m 0 min 0 min 4 W/m 3,2 km/h (1 Bft) 98,00 %
22.06.2021 21:08 14,4 C 13,3 C 12,8 C 97 % 1017,7 hPa 0,0 l/m 0 min 0 min 0 W/m 3,2 km/h (1 Bft) 97,87 %
22.06.2021 21:10 14,4 C 13,3 C 12,8 C 97 % 1017,8 hPa 0,0 l/m 0 min 0 min 0 W/m 6,4 km/h (2 Bft) 93,62 %
22.06.2021 21:12 14,3 C 13,3 C 12,3 C 97 % 1017,8 hPa 0,0 l/m 0 min 0 min 0 W/m 6,4 km/h (2 Bft) 97,37 %
22.06.2021 21:14 14,3 C 13,3 C 12,3 C 97 % 1017,8 hPa 0,0 l/m 0 min 0 min 0 W/m 9,7 km/h (2 Bft) 97,96 %
22.06.2021 21:16 14,3 C 13,3 C 12,3 C 97 % 1017,8 hPa 0,0 l/m 0 min 0 min 0 W/m 9,7 km/h (2 Bft) 96,23 %
22.06.2021 21:18 14,2 C 13,3 C 12,3 C 97 % 1017,9 hPa 0,0 l/m 0 min 0 min 0 W/m 6,4 km/h (2 Bft) 100,00 %
22.06.2021 21:20 14,2 C 13,3 C 12,3 C 97 % 1017,9 hPa 0,0 l/m 0 min 0 min 0 W/m 3,2 km/h (1 Bft) 96,00 %
22.06.2021 21:22 14,2 C 13,3 C 12,3 C 97 % 1017,9 hPa 0,0 l/m 0 min 0 min 0 W/m 3,2 km/h (1 Bft) 95,74 %
22.06.2021 21:24 14,2 C 13,3 C 12,3 C 97 % 1017,9 hPa 0,0 l/m 0 min 0 min 0 W/m 0,0 km/h (0 Bft) 97,73 %
22.06.2021 21:26 14,2 C 13,3 C 12,8 C 97 % 1018,0 hPa 0,0 l/m 0 min 0 min 0 W/m 0,0 km/h (0 Bft) 97,83 %
22.06.2021 21:28 14,2 C 13,3 C 12,8 C 97 % 1018,0 hPa 0,0 l/m 0 min 2 min 0 W/m 3,2 km/h (1 Bft) 94,00 %
22.06.2021 21:30 14,3 C 13,3 C 12,8 C 97 % 1018,0 hPa 0,0 l/m 0 min 2 min 0 W/m 0,0 km/h (0 Bft) 97,87 %
22.06.2021 21:32 14,3 C 13,3 C 12,8 C 97 % 1018,0 hPa 0,2 l/m 0 min 2 min 0 W/m 6,4 km/h (2 Bft) 97,73 %
22.06.2021 21:34 14,3 C 13,3 C 12,8 C 97 % 1017,9 hPa 0,0 l/m 0 min 2 min 0 W/m 3,2 km/h (1 Bft) 98,00 %
22.06.2021 21:36 14,2 C 13,3 C 12,8 C 98 % 1017,9 hPa 0,0 l/m 0 min 2 min 0 W/m 6,4 km/h (2 Bft) 97,83 %
22.06.2021 21:38 14,2 C 13,3 C 12,8 C 97 % 1018,0 hPa 0,0 l/m 0 min 2 min 0 W/m 3,2 km/h (1 Bft) 100,00 %
22.06.2021 21:40 14,2 C 13,3 C 12,8 C 98 % 1018,0 hPa 0,0 l/m 0 min 2 min 0 W/m 9,7 km/h (2 Bft) 100,00 %
22.06.2021 21:42 14,2 C 13,3 C 12,3 C 98 % 1018,0 hPa 0,0 l/m 0 min 2 min 0 W/m 12,9 km/h (3 Bft) 100,00 %
22.06.2021 21:44 14,2 C 13,3 C 12,3 C 97 % 1018,0 hPa 0,0 l/m 0 min 2 min 0 W/m 6,4 km/h (2 Bft) 97,73 %
22.06.2021 21:46 14,2 C 13,3 C 12,8 C 97 % 1018,1 hPa 0,0 l/m 0 min 0 min 0 W/m 6,4 km/h (2 Bft) 97,87 %
22.06.2021 21:48 14,2 C 13,3 C 12,3 C 98 % 1018,1 hPa 0,0 l/m 0 min 0 min 0 W/m 0,0 km/h (0 Bft) 97,83 %
22.06.2021 21:50 14,2 C 13,3 C 12,8 C 98 % 1018,1 hPa 0,0 l/m 0 min 0 min 0 W/m 3,2 km/h (1 Bft) 96,00 %
22.06.2021 21:52 14,2 C 13,3 C 12,8 C 98 % 1018,1 hPa 0,0 l/m 0 min 2 min 0 W/m 3,2 km/h (1 Bft) 97,87 %
22.06.2021 21:54 14,2 C 13,3 C 12,8 C 98 % 1018,1 hPa 0,0 l/m 0 min 2 min 0 W/m 3,2 km/h (1 Bft) 97,73 %
22.06.2021 21:56 14,2 C 13,3 C 12,8 C 98 % 1018,2 hPa 0,2 l/m 0 min 2 min 0 W/m 3,2 km/h (1 Bft) 98,00 %
22.06.2021 21:58 14,2 C 13,3 C 12,8 C 98 % 1018,2 hPa 0,0 l/m 0 min 2 min 0 W/m 3,2 km/h (1 Bft) 95,92 %
22.06.2021 22:00 14,2 C 13,3 C 12,8 C 98 % 1018,3 hPa 0,0 l/m 0 min 2 min 0 W/m 3,2 km/h (1 Bft) 97,87 %
22.06.2021 22:02 14,2 C 13,3 C 12,8 C 98 % 1018,3 hPa 0,2 l/m 0 min 2 min 0 W/m 0,0 km/h (0 Bft) 97,37 %
22.06.2021 22:04 14,2 C 13,3 C 12,8 C 98 % 1018,3 hPa 0,0 l/m 0 min 2 min 0 W/m 6,4 km/h (2 Bft) 98,00 %
22.06.2021 22:06 14,2 C 13,3 C 12,8 C 98 % 1018,3 hPa 0,0 l/m 0 min 2 min 0 W/m 6,4 km/h (2 Bft) 96,23 %
22.06.2021 22:08 14,2 C 13,3 C 12,8 C 98 % 1018,3 hPa 0,0 l/m 0 min 2 min 0 W/m 6,4 km/h (2 Bft) 97,87 %
22.06.2021 22:10 14,2 C 13,3 C 12,8 C 98 % 1018,2 hPa 0,0 l/m 0 min 2 min 0 W/m 6,4 km/h (2 Bft) 97,83 %
22.06.2021 22:12 14,2 C 13,3 C 12,8 C 98 % 1018,2 hPa 0,0 l/m 0 min 2 min 0 W/m 6,4 km/h (2 Bft) 96,00 %
22.06.2021 22:14 14,2 C 13,3 C 12,8 C 98 % 1018,2 hPa 0,0 l/m 0 min 0 min 0 W/m 6,4 km/h (2 Bft) 97,87 %
22.06.2021 22:16 14,2 C 13,3 C 12,8 C 98 % 1018,2 hPa 0,2 l/m 0 min 2 min 0 W/m 6,4 km/h (2 Bft) 95,74 %
22.06.2021 22:18 14,2 C 13,3 C 12,8 C 98 % 1018,3 hPa 0,0 l/m 0 min 0 min 0 W/m 3,2 km/h (1 Bft) 92,11 %
22.06.2021 22:20 14,2 C 13,3 C 12,8 C 98 % 1018,4 hPa 0,0 l/m 0 min 0 min 0 W/m 3,2 km/h (1 Bft) 95,74 %
22.06.2021 22:22 14,2 C 13,3 C 12,8 C 98 % 1018,4 hPa 0,0 l/m 0 min 0 min 0 W/m 3,2 km/h (1 Bft) 98,18 %
22.06.2021 22:24 14,2 C 13,3 C 12,8 C 98 % 1018,5 hPa 0,0 l/m 0 min 0 min 0 W/m 3,2 km/h (1 Bft) 92,11 %
22.06.2021 22:26 14,2 C 13,3 C 12,8 C 98 % 1018,5 hPa 0,0 l/m 0 min 0 min 0 W/m 3,2 km/h (1 Bft) 95,74 %
22.06.2021 22:28 14,2 C 13,3 C 12,8 C 98 % 1018,5 hPa 0,0 l/m 0 min 0 min 0 W/m 0,0 km/h (0 Bft) 95,74 %
22.06.2021 22:30 14,2 C 13,3 C 12,8 C 98 % 1018,5 hPa 0,0 l/m 0 min 0 min 0 W/m 0,0 km/h (0 Bft) 93,62 %
22.06.2021 22:32 14,2 C 13,3 C 12,8 C 98 % 1018,5 hPa 0,0 l/m 0 min 0 min 0 W/m 3,2 km/h (1 Bft) 96,43 %
22.06.2021 22:34 14,2 C 13,3 C 12,8 C 98 % 1018,5 hPa 0,0 l/m 0 min 0 min 0 W/m 3,2 km/h (1 Bft) 94,74 %
22.06.2021 22:36 14,2 C 13,3 C 12,8 C 98 % 1018,5 hPa 0,0 l/m 0 min 0 min 0 W/m 3,2 km/h (1 Bft) 95,65 %
22.06.2021 22:38 14,2 C 13,3 C 12,8 C 98 % 1018,5 hPa 0,0 l/m 0 min 0 min 0 W/m 6,4 km/h (2 Bft) 94,64 %
22.06.2021 22:40 14,2 C 13,3 C 12,8 C 98 % 1018,5 hPa 0,0 l/m 0 min 0 min 0 W/m 6,4 km/h (2 Bft) 97,87 %
22.06.2021 22:42 14,2 C 13,3 C 12,8 C 98 % 1018,5 hPa 0,0 l/m 0 min 0 min 0 W/m 6,4 km/h (2 Bft) 100,00 %
22.06.2021 22:44 14,2 C 13,3 C 12,8 C 98 % 1018,5 hPa 0,0 l/m 0 min 0 min 0 W/m 6,4 km/h (2 Bft) 97,87 %
22.06.2021 22:46 14,2 C 13,3 C 12,8 C 98 % 1018,5 hPa 0,0 l/m 0 min 0 min 0 W/m 6,4 km/h (2 Bft) 94,55 %
22.06.2021 22:48 14,2 C 13,3 C 12,8 C 98 % 1018,5 hPa 0,0 l/m 0 min 0 min 0 W/m 6,4 km/h (2 Bft) 92,11 %
22.06.2021 22:50 14,2 C 13,3 C 12,8 C 98 % 1018,5 hPa 0,0 l/m 0 min 0 min 0 W/m 6,4 km/h (2 Bft) 98,00 %
22.06.2021 22:52 14,2 C 13,3 C 12,8 C 98 % 1018,5 hPa 0,0 l/m 0 min 0 min 0 W/m 6,4 km/h (2 Bft) 97,87 %
22.06.2021 22:54 14,2 C 13,3 C 12,8 C 98 % 1018,5 hPa 0,0 l/m 0 min 0 min 0 W/m 9,7 km/h (2 Bft) 97,87 %
22.06.2021 22:56 14,2 C 13,3 C 12,8 C 98 % 1018,5 hPa 0,0 l/m 0 min 0 min 0 W/m 6,4 km/h (2 Bft) 95,45 %
22.06.2021 22:58 14,2 C 13,3 C 12,8 C 98 % 1018,6 hPa 0,0 l/m 0 min 0 min 0 W/m 9,7 km/h (2 Bft) 97,96 %
22.06.2021 23:00 14,2 C 13,3 C 12,8 C 98 % 1018,6 hPa 0,0 l/m 0 min 0 min 0 W/m 9,7 km/h (2 Bft) 98,00 %
22.06.2021 23:02 14,2 C 13,3 C 12,8 C 98 % 1018,7 hPa 0,0 l/m 0 min 0 min 0 W/m 6,4 km/h (2 Bft) 94,74 %
22.06.2021 23:04 14,2 C 13,3 C 12,8 C 98 % 1018,7 hPa 0,0 l/m 0 min 0 min 0 W/m 9,7 km/h (2 Bft) 96,00 %
22.06.2021 23:06 14,2 C 13,3 C 12,8 C 98 % 1018,7 hPa 0,0 l/m 0 min 0 min 0 W/m 9,7 km/h (2 Bft) 98,11 %
22.06.2021 23:08 14,2 C 13,3 C 12,8 C 98 % 1018,7 hPa 0,0 l/m 0 min 0 min 0 W/m 6,4 km/h (2 Bft) 95,92 %
22.06.2021 23:10 14,2 C 13,3 C 12,8 C 98 % 1018,7 hPa 0,0 l/m 0 min 0 min 0 W/m 9,7 km/h (2 Bft) 97,87 %
22.06.2021 23:12 14,2 C 13,3 C 12,8 C 98 % 1018,7 hPa 0,0 l/m 0 min 0 min 0 W/m 6,4 km/h (2 Bft) 97,37 %
22.06.2021 23:14 14,2 C 13,3 C 12,8 C 98 % 1018,7 hPa 0,0 l/m 0 min 0 min 0 W/m 6,4 km/h (2 Bft) 98,00 %
22.06.2021 23:16 14,2 C 13,3 C 12,8 C 98 % 1018,7 hPa 0,0 l/m 0 min 0 min 0 W/m 3,2 km/h (1 Bft) 98,11 %
22.06.2021 23:18 14,2 C 13,3 C 12,8 C 98 % 1018,8 hPa 0,0 l/m 0 min 0 min 0 W/m 3,2 km/h (1 Bft) 97,37 %
22.06.2021 23:20 14,2 C 13,3 C 12,8 C 98 % 1018,8 hPa 0,0 l/m 0 min 0 min 0 W/m 9,7 km/h (2 Bft) 95,92 %
22.06.2021 23:22 14,2 C 13,3 C 12,8 C 98 % 1018,8 hPa 0,0 l/m 0 min 0 min 0 W/m 9,7 km/h (2 Bft) 95,74 %
22.06.2021 23:24 14,2 C 13,3 C 12,8 C 98 % 1018,8 hPa 0,0 l/m 0 min 0 min 0 W/m 6,4 km/h (2 Bft) 97,73 %
22.06.2021 23:26 14,2 C 13,3 C 12,8 C 98 % 1018,9 hPa 0,0 l/m 0 min 0 min 0 W/m 12,9 km/h (3 Bft) 98,00 %
22.06.2021 23:28 14,2 C 13,3 C 12,8 C 98 % 1018,9 hPa 0,0 l/m 0 min 0 min 0 W/m 6,4 km/h (2 Bft) 97,87 %
22.06.2021 23:30 14,2 C 13,3 C 12,8 C 98 % 1018,9 hPa 0,0 l/m 0 min 0 min 0 W/m 9,7 km/h (2 Bft) 97,87 %
22.06.2021 23:32 14,1 C 13,3 C 12,8 C 98 % 1018,9 hPa 0,0 l/m 0 min 0 min 0 W/m 6,4 km/h (2 Bft) 93,62 %
22.06.2021 23:34 14,1 C 13,3 C 12,8 C 98 % 1018,9 hPa 0,0 l/m 0 min 0 min 0 W/m 3,2 km/h (1 Bft) 97,83 %
22.06.2021 23:36 14,1 C 13,3 C 12,8 C 98 % 1018,9 hPa 0,0 l/m 0 min 0 min 0 W/m 9,7 km/h (2 Bft) 95,74 %
22.06.2021 23:38 14,1 C 13,3 C 12,8 C 98 % 1018,9 hPa 0,0 l/m 0 min 0 min 0 W/m 12,9 km/h (3 Bft) 93,62 %
22.06.2021 23:40 14,0 C 13,3 C 12,8 C 98 % 1018,9 hPa 0,0 l/m 0 min 0 min 0 W/m 6,4 km/h (2 Bft) 93,62 %
22.06.2021 23:42 14,0 C 13,3 C 12,8 C 98 % 1018,9 hPa 0,0 l/m 0 min 0 min 0 W/m 12,9 km/h (3 Bft) 95,45 %
22.06.2021 23:44 14,0 C 13,3 C 12,8 C 98 % 1018,9 hPa 0,0 l/m 0 min 0 min 0 W/m 9,7 km/h (2 Bft) 95,92 %
22.06.2021 23:46 14,0 C 13,3 C 12,8 C 98 % 1018,9 hPa 0,0 l/m 0 min 0 min 0 W/m 6,4 km/h (2 Bft) 94,34 %
22.06.2021 23:48 14,0 C 13,3 C 12,8 C 98 % 1019,0 hPa 0,0 l/m 0 min 0 min 0 W/m 9,7 km/h (2 Bft) 92,11 %
22.06.2021 23:50 14,0 C 13,3 C 12,8 C 98 % 1019,0 hPa 0,0 l/m 0 min 0 min 0 W/m 6,4 km/h (2 Bft) 96,00 %
22.06.2021 23:52 14,0 C 13,3 C 12,8 C 98 % 1019,0 hPa 0,0 l/m 0 min 0 min 0 W/m 6,4 km/h (2 Bft) 95,74 %
22.06.2021 23:54 14,0 C 13,3 C 12,8 C 98 % 1019,1 hPa 0,0 l/m 0 min 0 min 0 W/m 3,2 km/h (1 Bft) 90,91 %
22.06.2021 23:56 13,9 C 13,3 C 12,8 C 98 % 1019,0 hPa 0,0 l/m 0 min 0 min 0 W/m 3,2 km/h (1 Bft) 95,92 %
22.06.2021 23:58 14,0 C 13,3 C 12,8 C 98 % 1019,0 hPa 0,0 l/m 0 min 0 min 0 W/m 6,4 km/h (2 Bft) 96,00 %
_ Min-Zeit 05:42 04:22 04:42 12:52 00:34 - - - - 16:30 04:50
Minimum _ 12,6 C 12,2 C 10,6 C 75 % 1013,7 hPa - - - - 0,0 km/h (0 Bft) 89,36 %
_ Max-Zeit 13:16 08:52 12:22 21:36 23:54 20:06 08:50 18:08 08:52 05:52 00:10
Maximum _ 17,5 C 18,3 C 15,6 C 98 % 1019,1 hPa 0,4 l/m 3 min 4 min 544 W/m 29,0 km/h
N-NO (5 Bft)
100,00 %
Durchschnitt _ 14,9 C 14,5 C 12,9 C 88 % 1016,0 hPa #9,0 l/m #27 min. #6:04 h 135 W/m 9,9 km/h (2 Bft) 97,56 %
© 2021 W. Hausmann